Time,TemperatureF,DewpointF,PressureIn,WindDirection,WindDirectionDegrees,WindSpeedMPH,WindSpeedGustMPH,Humidity,HourlyPrecipIn,Conditions,Clouds,dailyrainin,SoftwareType,DateUTC
2013-03-08 00:00:00,34.5,30.2,30.32,NE,50,1.0,3.5,84,0.00,RA,,0.00,WeatherDisplay:10.37,2013-03-08 05:00:00,
2013-03-08 00:01:00,34.5,29.9,30.32,NE,45,0.6,1.1,83,0.00,RA,,0.00,WeatherDisplay:10.37,2013-03-08 05:01:00,
2013-03-08 00:05:00,34.5,30.2,30.32,NNE,21,1.5,4.6,84,0.00,RA,,0.00,WeatherDisplay:10.37,2013-03-08 05:05:00,
2013-03-08 00:06:00,34.5,30.2,30.32,NNE,21,0.1,2.0,84,0.00,RA,,0.00,WeatherDisplay:10.37,2013-03-08 05:06:00,
2013-03-08 00:10:00,34.5,30.2,30.32,NNE,21,0.0,1.1,84,0.00,OVC,,0.00,WeatherDisplay:10.37,2013-03-08 05:10:00,
2013-03-08 00:11:00,34.5,30.2,30.32,NNE,22,0.2,3.0,84,0.00,OVC,,0.00,WeatherDisplay:10.37,2013-03-08 05:11:00,
2013-03-08 00:15:00,34.4,30.1,30.32,ENE,67,1.1,3.5,84,0.00,OVC,,0.00,WeatherDisplay:10.37,2013-03-08 05:15:00,
2013-03-08 00:16:00,34.4,30.1,30.32,ENE,67,0.0,3.5,84,0.00,OVC,,0.00,WeatherDisplay:10.37,2013-03-08 05:16:00,
2013-03-08 00:20:00,34.3,30.3,30.32,NNE,19,3.3,4.0,85,0.00,OVC,,0.00,WeatherDisplay:10.37,2013-03-08 05:20:00,
2013-03-08 00:21:00,34.3,30.0,30.32,NNE,19,2.0,5.8,84,0.00,OVC,,0.00,WeatherDisplay:10.37,2013-03-08 05:21:00,
2013-03-08 00:25:00,34.3,30.0,30.32,North,5,0.4,3.0,84,0.00,OVC,,0.00,WeatherDisplay:10.37,2013-03-08 05:25:00,
2013-03-08 00:26:00,34.4,30.1,30.32,NE,39,1.2,6.0,84,0.00,OVC,,0.00,WeatherDisplay:10.37,2013-03-08 05:26:00,
2013-03-08 00:31:00,34.3,30.0,30.32,NNE,28,1.7,3.5,84,0.00,OVC,,0.00,WeatherDisplay:10.37,2013-03-08 05:31:00,
2013-03-08 00:36:00,34.3,29.7,30.32,NNE,18,4.2,6.9,83,0.00,OVC,,0.00,WeatherDisplay:10.37,2013-03-08 05:36:00,
2013-03-08 00:41:00,34.3,29.7,30.32,NE,42,1.1,4.0,83,0.00,OVC,,0.00,WeatherDisplay:10.37,2013-03-08 05:41:00,
2013-03-08 00:42:00,34.3,29.7,30.32,NE,41,3.7,5.8,83,0.00,OVC,,0.00,WeatherDisplay:10.37,2013-03-08 05:42:00,
2013-03-08 00:46:00,34.3,29.7,30.32,NE,45,1.8,4.6,83,0.00,OVC,,0.00,WeatherDisplay:10.37,2013-03-08 05:46:00,
2013-03-08 00:47:00,34.3,30.0,30.32,NNE,12,3.1,4.6,84,0.00,OVC,,0.00,WeatherDisplay:10.37,2013-03-08 05:47:00,
2013-03-08 00:51:00,34.3,30.0,30.32,NE,48,2.9,5.8,84,0.00,OVC,,0.00,WeatherDisplay:10.37,2013-03-08 05:51:00,
2013-03-08 00:52:00,34.3,30.0,30.32,NE,50,3.4,4.6,84,0.00,OVC,,0.00,WeatherDisplay:10.37,2013-03-08 05:52:00,
2013-03-08 00:56:00,34.2,29.9,30.32,NE,36,2.7,4.6,84,0.00,OVC,,0.00,WeatherDisplay:10.37,2013-03-08 05:56:00,
2013-03-08 00:57:00,34.2,29.9,30.32,NE,54,5.2,8.1,84,0.00,OVC,,0.00,WeatherDisplay:10.37,2013-03-08 05:57:00,
2013-03-08 01:01:00,34.1,29.5,30.32,ENE,60,3.1,4.6,83,0.00,OVC,,0.00,WeatherDisplay:10.37,2013-03-08 06:01:00,
2013-03-08 01:02:00,34.1,29.5,30.32,ENE,59,2.4,5.8,83,0.00,OVC,,0.00,WeatherDisplay:10.37,2013-03-08 06:02:00,
2013-03-08 01:06:00,34.1,29.5,30.31,ENE,67,4.0,7.0,83,0.00,OVC,,0.00,WeatherDisplay:10.37,2013-03-08 06:06:00,
2013-03-08 01:07:00,34.1,29.5,30.31,ENE,60,6.7,11.5,83,0.00,OVC,,0.00,WeatherDisplay:10.37,2013-03-08 06:07:00,
2013-03-08 01:08:00,34.1,29.5,30.32,ENE,64,5.4,9.2,83,0.00,OVC,,0.00,WeatherDisplay:10.37,2013-03-08 06:08:00,
2013-03-08 01:11:00,34.1,29.5,30.32,NE,53,5.4,10.4,83,0.00,OVC,,0.00,WeatherDisplay:10.37,2013-03-08 06:11:00,
2013-03-08 01:12:00,34.1,29.5,30.32,ENE,58,4.3,6.9,83,0.00,OVC,,0.00,WeatherDisplay:10.37,2013-03-08 06:12:00,
2013-03-08 01:13:00,34.1,29.5,30.32,East,82,2.6,4.6,83,0.00,OVC,,0.00,WeatherDisplay:10.37,2013-03-08 06:13:00,
2013-03-08 01:16:00,34.1,29.5,30.32,North,9,3.2,4.6,83,0.00,OVC,,0.00,WeatherDisplay:10.37,2013-03-08 06:16:00,
2013-03-08 01:17:00,34.1,29.5,30.32,NNE,21,3.5,4.6,83,0.00,OVC,,0.00,WeatherDisplay:10.37,2013-03-08 06:17:00,
2013-03-08 01:18:00,34.1,29.5,30.32,North,4,4.0,6.9,83,0.00,OVC,,0.00,WeatherDisplay:10.37,2013-03-08 06:18:00,
2013-03-08 01:21:00,34.0,29.4,30.32,NNE,15,1.4,5.8,83,0.00,OVC,,0.00,WeatherDisplay:10.37,2013-03-08 06:21:00,
2013-03-08 01:22:00,34.0,29.4,30.32,NNE,14,3.0,5.8,83,0.00,OVC,,0.00,WeatherDisplay:10.37,2013-03-08 06:22:00,
2013-03-08 01:23:00,34.0,29.4,30.32,NNE,14,3.7,5.8,83,0.00,OVC,,0.00,WeatherDisplay:10.37,2013-03-08 06:23:00,
2013-03-08 01:26:00,34.0,29.4,30.32,NE,36,0.1,3.5,83,0.00,OVC,,0.00,WeatherDisplay:10.37,2013-03-08 06:26:00,
2013-03-08 01:27:00,34.0,29.4,30.32,North,9,0.5,4.0,83,0.00,OVC,,0.00,WeatherDisplay:10.37,2013-03-08 06:27:00,
2013-03-08 01:28:00,34.0,29.4,30.32,North,359,2.6,4.6,83,0.00,OVC,,0.00,WeatherDisplay:10.37,2013-03-08 06:28:00,
2013-03-08 01:31:00,33.9,29.3,30.33,NNE,20,1.0,3.5,83,0.00,OVC,,0.00,WeatherDisplay:10.37,2013-03-08 06:31:00,
2013-03-08 01:32:00,33.9,29.3,30.33,NNE,14,1.3,3.5,83,0.00,OVC,,0.00,WeatherDisplay:10.37,2013-03-08 06:32:00,
2013-03-08 01:33:00,33.9,29.3,30.33,NNE,15,0.1,3.5,83,0.00,OVC,,0.00,WeatherDisplay:10.37,2013-03-08 06:33:00,
2013-03-08 01:36:00,33.9,29.3,30.32,NNE,17,0.9,5.8,83,0.00,OVC,,0.00,WeatherDisplay:10.37,2013-03-08 06:36:00,
2013-03-08 01:37:00,33.9,29.3,30.32,NNE,23,1.9,3.5,83,0.00,OVC,,0.00,WeatherDisplay:10.37,2013-03-08 06:37:00,
2013-03-08 01:38:00,33.9,29.6,30.32,North,10,1.1,4.0,84,0.00,OVC,,0.00,WeatherDisplay:10.37,2013-03-08 06:38:00,
2013-03-08 01:41:00,33.9,29.6,30.32,NNE,20,1.5,5.8,84,0.00,OVC,,0.00,WeatherDisplay:10.37,2013-03-08 06:41:00,
2013-03-08 01:42:00,33.8,29.5,30.32,NNE,25,2.8,6.9,84,0.00,OVC,,0.00,WeatherDisplay:10.37,2013-03-08 06:42:00,
2013-03-08 01:44:00,33.8,29.5,30.32,NNE,22,2.3,5.8,84,0.00,OVC,,0.00,WeatherDisplay:10.37,2013-03-08 06:44:00,
2013-03-08 01:46:00,33.7,29.1,30.32,NNE,29,5.3,7.0,83,0.00,OVC,,0.00,WeatherDisplay:10.37,2013-03-08 06:46:00,
2013-03-08 01:47:00,33.7,29.4,30.32,NNE,30,3.1,6.9,84,0.00,OVC,,0.00,WeatherDisplay:10.37,2013-03-08 06:47:00,
2013-03-08 01:48:00,33.7,29.1,30.32,NNE,30,1.4,5.8,83,0.00,OVC,,0.00,WeatherDisplay:10.37,2013-03-08 06:48:00,
2013-03-08 01:49:00,33.7,29.1,30.32,NE,34,3.4,5.8,83,0.00,OVC,,0.00,WeatherDisplay:10.37,2013-03-08 06:49:00,
2013-03-08 01:51:00,33.6,29.0,30.32,NNE,30,1.4,4.6,83,0.00,OVC,,0.00,WeatherDisplay:10.37,2013-03-08 06:51:00,
2013-03-08 01:52:00,33.6,29.0,30.32,NE,37,1.8,3.5,83,0.00,OVC,,0.00,WeatherDisplay:10.37,2013-03-08 06:52:00,
2013-03-08 01:53:00,33.6,29.0,30.32,NE,37,1.4,3.5,83,0.00,OVC,,0.00,WeatherDisplay:10.37,2013-03-08 06:53:00,
2013-03-08 01:54:00,33.5,28.9,30.32,NNE,25,2.5,3.5,83,0.00,OVC,,0.00,WeatherDisplay:10.37,2013-03-08 06:54:00,
2013-03-08 01:56:00,33.5,28.9,30.32,NNE,24,0.2,3.5,83,0.00,OVC,,0.00,WeatherDisplay:10.37,2013-03-08 06:56:00,
2013-03-08 01:57:00,33.5,29.2,30.32,NNE,24,0.6,3.5,84,0.00,OVC,,0.00,WeatherDisplay:10.37,2013-03-08 06:57:00,
2013-03-08 01:58:00,33.5,28.9,30.32,NNE,24,0.0,3.5,83,0.00,OVC,,0.00,WeatherDisplay:10.37,2013-03-08 06:58:00,
2013-03-08 01:59:00,33.5,29.2,30.32,NNE,14,1.5,2.0,84,0.00,OVC,,0.00,WeatherDisplay:10.37,2013-03-08 06:59:00,
2013-03-08 02:01:00,33.5,29.2,30.32,NNE,14,0.9,3.5,84,0.00,OVC,,0.00,WeatherDisplay:10.37,2013-03-08 07:01:00,
2013-03-08 02:02:00,33.5,29.2,30.32,NNE,14,0.6,2.3,84,0.00,OVC,,0.00,WeatherDisplay:10.37,2013-03-08 07:02:00,
2013-03-08 02:03:00,33.5,29.2,30.32,NNE,16,0.2,3.5,84,0.00,OVC,,0.00,WeatherDisplay:10.37,2013-03-08 07:03:00,
2013-03-08 02:05:00,33.5,29.2,30.32,NNE,19,2.1,5.8,84,0.00,OVC,,0.00,WeatherDisplay:10.37,2013-03-08 07:05:00,
2013-03-08 02:07:00,33.4,29.1,30.32,NE,38,0.6,2.3,84,0.00,OVC,,0.00,WeatherDisplay:10.37,2013-03-08 07:07:00,
2013-03-08 02:08:00,33.3,29.0,30.32,NE,38,0.7,2.3,84,0.00,OVC,,0.00,WeatherDisplay:10.37,2013-03-08 07:08:00,
2013-03-08 02:10:00,33.3,29.0,30.32,NE,38,0.0,0.0,84,0.00,OVC,,0.00,WeatherDisplay:10.37,2013-03-08 07:10:00,
2013-03-08 02:12:00,33.2,28.9,30.32,NE,38,0.0,0.0,84,0.00,OVC,,0.00,WeatherDisplay:10.37,2013-03-08 07:12:00,
2013-03-08 02:13:00,33.2,28.9,30.32,NNE,22,1.7,1.7,84,0.00,OVC,,0.00,WeatherDisplay:10.37,2013-03-08 07:13:00,
2013-03-08 02:15:00,33.2,28.9,30.32,NNE,22,0.0,0.0,84,0.00,OVC,,0.00,WeatherDisplay:10.37,2013-03-08 07:15:00,
2013-03-08 02:17:00,33.1,29.1,30.32,NNE,22,0.0,0.0,85,0.00,FEW,,0.00,WeatherDisplay:10.37,2013-03-08 07:17:00,
2013-03-08 02:18:00,33.1,29.1,30.32,NNE,22,0.0,0.0,85,0.00,FEW,,0.00,WeatherDisplay:10.37,2013-03-08 07:18:00,
2013-03-08 02:20:00,33.1,29.1,30.32,NNE,22,0.0,0.0,85,0.00,FEW,,0.00,WeatherDisplay:10.37,2013-03-08 07:20:00,
2013-03-08 02:22:00,33.1,29.1,30.32,NNE,22,0.4,2.3,85,0.00,FEW,,0.00,WeatherDisplay:10.37,2013-03-08 07:22:00,
2013-03-08 02:23:00,33.0,29.0,30.32,NNE,22,0.1,1.1,85,0.00,FEW,,0.00,WeatherDisplay:10.37,2013-03-08 07:23:00,
2013-03-08 02:25:00,33.0,29.0,30.32,NNE,22,0.1,1.1,85,0.00,FEW,,0.00,WeatherDisplay:10.37,2013-03-08 07:25:00,
2013-03-08 02:27:00,33.0,29.3,30.32,NNE,22,0.0,0.0,86,0.00,FEW,,0.00,WeatherDisplay:10.37,2013-03-08 07:27:00,
2013-03-08 02:28:00,33.0,29.3,30.32,NNE,22,0.1,0.0,86,0.00,FEW,,0.00,WeatherDisplay:10.37,2013-03-08 07:28:00,
2013-03-08 02:30:00,33.0,29.3,30.32,NNE,22,0.0,0.0,86,0.00,FEW,,0.00,WeatherDisplay:10.37,2013-03-08 07:30:00,
2013-03-08 02:32:00,33.0,29.3,30.32,NNE,22,0.0,0.0,86,0.00,FEW,,0.00,WeatherDisplay:10.37,2013-03-08 07:32:00,
2013-03-08 02:33:00,32.9,29.2,30.32,NNE,22,0.0,0.0,86,0.00,FEW,,0.00,WeatherDisplay:10.37,2013-03-08 07:33:00,
2013-03-08 02:35:00,32.9,29.2,30.32,NNE,22,0.1,1.1,86,0.00,FEW,,0.00,WeatherDisplay:10.37,2013-03-08 07:35:00,
2013-03-08 02:37:00,32.9,29.2,30.32,NNE,22,0.0,0.0,86,0.00,FEW,,0.00,WeatherDisplay:10.37,2013-03-08 07:37:00,
2013-03-08 02:40:00,32.8,29.1,30.32,NNE,22,0.0,0.0,86,0.00,FEW,,0.00,WeatherDisplay:10.37,2013-03-08 07:40:00,
2013-03-08 02:42:00,32.8,29.1,30.31,NNE,22,0.0,0.0,86,0.00,FEW,,0.00,WeatherDisplay:10.37,2013-03-08 07:42:00,
2013-03-08 02:43:00,32.8,29.1,30.31,NNE,22,0.0,0.0,86,0.00,FEW,,0.00,WeatherDisplay:10.37,2013-03-08 07:43:00,
2013-03-08 02:45:00,32.7,29.0,30.32,NNE,22,0.0,0.0,86,0.00,FEW,,0.00,WeatherDisplay:10.37,2013-03-08 07:45:00,
2013-03-08 02:47:00,32.7,29.0,30.32,NNE,22,0.0,0.0,86,0.00,FEW,,0.00,WeatherDisplay:10.37,2013-03-08 07:47:00,
2013-03-08 02:48:00,32.7,29.0,30.32,NNE,22,0.0,0.0,86,0.00,FEW,,0.00,WeatherDisplay:10.37,2013-03-08 07:48:00,
2013-03-08 02:50:00,32.7,29.0,30.31,NNE,22,0.0,0.0,86,0.00,FEW,,0.00,WeatherDisplay:10.37,2013-03-08 07:50:00,
2013-03-08 02:52:00,32.7,29.3,30.31,NNE,22,0.0,1.1,87,0.00,FEW,,0.00,WeatherDisplay:10.37,2013-03-08 07:52:00,
2013-03-08 02:53:00,32.6,28.9,30.31,NNE,22,0.0,0.0,86,0.00,FEW,,0.00,WeatherDisplay:10.37,2013-03-08 07:53:00,
2013-03-08 02:55:00,32.6,29.2,30.31,NNE,22,0.3,2.3,87,0.00,FEW,,0.00,WeatherDisplay:10.37,2013-03-08 07:55:00,
2013-03-08 02:56:00,32.6,29.2,30.31,NNE,22,0.3,2.3,87,0.00,FEW,,0.00,WeatherDisplay:10.37,2013-03-08 07:56:00,
2013-03-08 02:57:00,32.5,28.8,30.31,NNE,22,0.4,2.3,86,0.00,FEW,,0.00,WeatherDisplay:10.37,2013-03-08 07:57:00,
2013-03-08 02:58:00,32.5,28.8,30.31,NNE,22,0.0,2.3,86,0.00,FEW,,0.00,WeatherDisplay:10.37,2013-03-08 07:58:00,
2013-03-08 03:00:00,32.5,29.1,30.32,North,356,1.6,3.5,87,0.00,CLR,,0.00,WeatherDisplay:10.37,2013-03-08 08:00:00,
2013-03-08 03:01:00,32.5,29.1,30.31,North,355,1.9,3.5,87,0.00,CLR,,0.00,WeatherDisplay:10.37,2013-03-08 08:01:00,
2013-03-08 03:02:00,32.4,29.0,30.31,North,355,2.6,3.5,87,0.00,CLR,,0.00,WeatherDisplay:10.37,2013-03-08 08:02:00,
2013-03-08 03:03:00,32.4,28.7,30.31,North,355,1.5,3.5,86,0.00,CLR,,0.00,WeatherDisplay:10.37,2013-03-08 08:03:00,
2013-03-08 03:06:00,32.4,28.7,30.31,North,355,0.0,3.5,86,0.00,CLR,,0.00,WeatherDisplay:10.37,2013-03-08 08:06:00,
2013-03-08 03:07:00,32.3,28.6,30.31,North,355,0.0,1.1,86,0.00,CLR,,0.00,WeatherDisplay:10.37,2013-03-08 08:07:00,
2013-03-08 03:08:00,32.3,28.9,30.31,North,355,0.4,2.3,87,0.00,CLR,,0.00,WeatherDisplay:10.37,2013-03-08 08:08:00,
2013-03-08 03:11:00,32.3,28.6,30.31,North,355,0.0,0.0,86,0.00,CLR,,0.00,WeatherDisplay:10.37,2013-03-08 08:11:00,
2013-03-08 03:12:00,32.3,28.6,30.31,North,355,0.0,0.0,86,0.00,CLR,,0.00,WeatherDisplay:10.37,2013-03-08 08:12:00,
2013-03-08 03:14:00,32.2,28.5,30.31,North,355,0.4,2.3,86,0.00,CLR,,0.00,WeatherDisplay:10.37,2013-03-08 08:14:00,
2013-03-08 03:16:00,32.1,28.7,30.31,North,355,0.0,0.0,87,0.00,CLR,,0.00,WeatherDisplay:10.37,2013-03-08 08:16:00,
2013-03-08 03:17:00,32.1,28.7,30.31,North,355,0.0,0.0,87,0.00,CLR,,0.00,WeatherDisplay:10.37,2013-03-08 08:17:00,
2013-03-08 03:19:00,32.1,28.7,30.31,North,355,0.0,0.0,87,0.00,CLR,,0.00,WeatherDisplay:10.37,2013-03-08 08:19:00,
2013-03-08 03:21:00,32.0,28.6,30.31,North,355,0.0,0.0,87,0.00,CLR,,0.00,WeatherDisplay:10.37,2013-03-08 08:21:00,
2013-03-08 03:22:00,32.0,28.6,30.31,North,355,0.0,0.0,87,0.00,CLR,,0.00,WeatherDisplay:10.37,2013-03-08 08:22:00,
2013-03-08 03:23:00,31.9,28.5,30.31,North,355,0.0,0.0,87,0.00,CLR,,0.00,WeatherDisplay:10.37,2013-03-08 08:23:00,
2013-03-08 03:24:00,31.9,28.5,30.31,North,355,0.0,0.0,87,0.00,CLR,,0.00,WeatherDisplay:10.37,2013-03-08 08:24:00,
2013-03-08 03:26:00,31.8,28.4,30.31,North,355,0.3,2.3,87,0.00,CLR,,0.00,WeatherDisplay:10.37,2013-03-08 08:26:00,
2013-03-08 03:27:00,31.8,28.4,30.31,North,355,0.0,2.3,87,0.00,CLR,,0.00,WeatherDisplay:10.37,2013-03-08 08:27:00,
2013-03-08 03:28:00,31.8,28.4,30.31,North,355,0.0,0.0,87,0.00,CLR,,0.00,WeatherDisplay:10.37,2013-03-08 08:28:00,
2013-03-08 03:29:00,31.8,28.4,30.31,North,355,0.0,0.0,87,0.00,CLR,,0.00,WeatherDisplay:10.37,2013-03-08 08:29:00,
2013-03-08 03:32:00,31.7,28.3,30.32,North,355,1.0,2.3,87,0.00,CLR,,0.00,WeatherDisplay:10.37,2013-03-08 08:32:00,
2013-03-08 03:33:00,31.7,28.3,30.31,North,8,1.5,3.0,87,0.00,CLR,,0.00,WeatherDisplay:10.37,2013-03-08 08:33:00,
2013-03-08 03:34:00,31.7,28.3,30.31,NNE,22,0.4,2.3,87,0.00,CLR,,0.00,WeatherDisplay:10.37,2013-03-08 08:34:00,
2013-03-08 03:37:00,31.6,28.2,30.32,NNE,22,0.4,3.5,87,0.00,CLR,,0.00,WeatherDisplay:10.37,2013-03-08 08:37:00,
2013-03-08 03:38:00,31.6,28.2,30.32,NNE,21,0.6,2.0,87,0.00,CLR,,0.00,WeatherDisplay:10.37,2013-03-08 08:38:00,
2013-03-08 03:39:00,31.6,28.2,30.32,NNE,20,0.0,3.0,87,0.00,CLR,,0.00,WeatherDisplay:10.37,2013-03-08 08:39:00,
2013-03-08 03:42:00,31.6,28.2,30.31,North,4,0.0,1.1,87,0.00,CLR,,0.00,WeatherDisplay:10.37,2013-03-08 08:42:00,
2013-03-08 03:43:00,31.6,28.2,30.31,North,4,0.0,0.0,87,0.00,CLR,,0.00,WeatherDisplay:10.37,2013-03-08 08:43:00,
2013-03-08 03:44:00,31.5,28.1,30.31,North,9,0.5,3.5,87,0.00,CLR,,0.00,WeatherDisplay:10.37,2013-03-08 08:44:00,
2013-03-08 03:47:00,31.4,28.0,30.31,NNE,12,0.2,3.5,87,0.00,CLR,,0.00,WeatherDisplay:10.37,2013-03-08 08:47:00,
2013-03-08 03:48:00,31.4,28.0,30.31,NNE,12,0.0,2.3,87,0.00,CLR,,0.00,WeatherDisplay:10.37,2013-03-08 08:48:00,
2013-03-08 03:49:00,31.3,27.9,30.31,NNE,13,0.9,3.5,87,0.00,CLR,,0.00,WeatherDisplay:10.37,2013-03-08 08:49:00,
2013-03-08 03:52:00,31.3,27.9,30.31,NNE,13,0.0,3.5,87,0.00,CLR,,0.00,WeatherDisplay:10.37,2013-03-08 08:52:00,
2013-03-08 03:53:00,31.2,27.8,30.31,NNE,13,0.0,1.1,87,0.00,CLR,,0.00,WeatherDisplay:10.37,2013-03-08 08:53:00,
2013-03-08 03:55:00,31.2,27.8,30.31,NNE,13,0.9,3.5,87,0.00,CLR,,0.00,WeatherDisplay:10.37,2013-03-08 08:55:00,
2013-03-08 03:57:00,31.1,28.0,30.31,NNE,14,0.4,3.5,88,0.00,CLR,,0.00,WeatherDisplay:10.37,2013-03-08 08:57:00,
2013-03-08 03:58:00,31.1,28.0,30.31,NNE,14,0.0,2.3,88,0.00,CLR,,0.00,WeatherDisplay:10.37,2013-03-08 08:58:00,
2013-03-08 03:59:00,31.1,28.0,30.31,NNE,14,0.0,0.0,88,0.00,CLR,,0.00,WeatherDisplay:10.37,2013-03-08 08:59:00,
2013-03-08 04:00:00,31.1,28.0,30.31,NNE,14,0.0,0.0,88,0.00,CLR,,0.00,WeatherDisplay:10.37,2013-03-08 09:00:00,
2013-03-08 04:02:00,31.0,27.9,30.31,NNE,14,0.7,3.5,88,0.00,CLR,,0.00,WeatherDisplay:10.37,2013-03-08 09:02:00,
2013-03-08 04:04:00,31.0,27.9,30.31,NNE,12,2.1,3.5,88,0.00,CLR,,0.00,WeatherDisplay:10.37,2013-03-08 09:04:00,
2013-03-08 04:05:00,30.9,27.8,30.31,NNE,12,0.0,0.0,88,0.00,CLR,,0.00,WeatherDisplay:10.37,2013-03-08 09:05:00,
2013-03-08 04:07:00,30.9,28.0,30.31,NNE,28,1.8,3.5,89,0.00,CLR,,0.00,WeatherDisplay:10.37,2013-03-08 09:07:00,
2013-03-08 04:09:00,30.9,28.0,30.31,NNE,12,0.6,2.3,89,0.00,CLR,,0.00,WeatherDisplay:10.37,2013-03-08 09:09:00,
2013-03-08 04:10:00,30.9,27.8,30.31,NNE,31,0.3,3.5,88,0.00,CLR,,0.00,WeatherDisplay:10.37,2013-03-08 09:10:00,
2013-03-08 04:12:00,30.9,27.8,30.31,NNE,29,1.5,2.3,88,0.00,CLR,,0.00,WeatherDisplay:10.37,2013-03-08 09:12:00,
2013-03-08 04:14:00,30.8,27.7,30.31,NNE,21,1.7,4.6,88,0.00,CLR,,0.00,WeatherDisplay:10.37,2013-03-08 09:14:00,
2013-03-08 04:15:00,30.7,27.6,30.31,NNE,19,0.9,3.5,88,0.00,CLR,,0.00,WeatherDisplay:10.37,2013-03-08 09:15:00,
2013-03-08 04:18:00,30.7,27.6,30.31,NNE,22,1.1,3.5,88,0.00,CLR,,0.00,WeatherDisplay:10.37,2013-03-08 09:18:00,
2013-03-08 04:19:00,30.6,27.5,30.31,NNE,22,0.0,1.1,88,0.00,CLR,,0.00,WeatherDisplay:10.37,2013-03-08 09:19:00,
2013-03-08 04:20:00,30.6,27.5,30.31,NNE,22,0.6,0.0,88,0.00,CLR,,0.00,WeatherDisplay:10.37,2013-03-08 09:20:00,
2013-03-08 04:23:00,30.5,27.4,30.31,NNE,22,0.0,0.0,88,0.00,CLR,,0.00,WeatherDisplay:10.37,2013-03-08 09:23:00,
2013-03-08 04:24:00,30.5,27.4,30.31,NNE,22,0.2,1.1,88,0.00,CLR,,0.00,WeatherDisplay:10.37,2013-03-08 09:24:00,
2013-03-08 04:25:00,30.5,27.4,30.31,NNE,20,0.5,2.3,88,0.00,CLR,,0.00,WeatherDisplay:10.37,2013-03-08 09:25:00,
2013-03-08 04:28:00,30.5,27.4,30.31,NNE,24,2.3,4.6,88,0.00,CLR,,0.00,WeatherDisplay:10.37,2013-03-08 09:28:00,
2013-03-08 04:29:00,30.5,27.4,30.31,NNE,24,0.5,3.5,88,0.00,CLR,,0.00,WeatherDisplay:10.37,2013-03-08 09:29:00,
2013-03-08 04:30:00,30.4,27.3,30.31,NE,51,0.9,3.5,88,0.00,CLR,,0.00,WeatherDisplay:10.37,2013-03-08 09:30:00,
2013-03-08 04:33:00,30.4,27.3,30.31,NNE,31,0.0,1.1,88,0.00,CLR,,0.00,WeatherDisplay:10.37,2013-03-08 09:33:00,
2013-03-08 04:34:00,30.4,27.3,30.32,NNE,31,0.4,2.0,88,0.00,CLR,,0.00,WeatherDisplay:10.37,2013-03-08 09:34:00,
2013-03-08 04:36:00,30.3,27.2,30.32,NNE,31,0.0,0.0,88,0.00,CLR,,0.00,WeatherDisplay:10.37,2013-03-08 09:36:00,
2013-03-08 04:38:00,30.3,27.2,30.32,NNE,13,0.8,4.0,88,0.00,CLR,,0.00,WeatherDisplay:10.37,2013-03-08 09:38:00,
2013-03-08 04:39:00,30.3,27.2,30.32,North,11,0.7,4.6,88,0.00,CLR,,0.00,WeatherDisplay:10.37,2013-03-08 09:39:00,
2013-03-08 04:41:00,30.3,27.2,30.32,NNE,15,0.5,1.1,88,0.00,CLR,,0.00,WeatherDisplay:10.37,2013-03-08 09:41:00,
2013-03-08 04:43:00,30.3,27.2,30.32,NNE,15,0.1,1.1,88,0.00,CLR,,0.00,WeatherDisplay:10.37,2013-03-08 09:43:00,
2013-03-08 04:44:00,30.3,27.2,30.32,NNE,25,0.7,3.5,88,0.00,CLR,,0.00,WeatherDisplay:10.37,2013-03-08 09:44:00,
2013-03-08 04:45:00,30.3,27.2,30.32,NNE,25,1.3,3.5,88,0.00,CLR,,0.00,WeatherDisplay:10.37,2013-03-08 09:45:00,
2013-03-08 04:46:00,30.3,27.2,30.32,NNE,25,0.1,3.5,88,0.00,CLR,,0.00,WeatherDisplay:10.37,2013-03-08 09:46:00,
2013-03-08 04:48:00,30.3,27.2,30.32,NNE,25,0.7,3.5,88,0.00,CLR,,0.00,WeatherDisplay:10.37,2013-03-08 09:48:00,
2013-03-08 04:49:00,30.2,27.1,30.32,NNE,25,0.1,1.1,88,0.00,CLR,,0.00,WeatherDisplay:10.37,2013-03-08 09:49:00,
2013-03-08 04:50:00,30.2,27.1,30.32,NNE,25,0.0,0.0,88,0.00,CLR,,0.00,WeatherDisplay:10.37,2013-03-08 09:50:00,
2013-03-08 04:52:00,30.2,27.3,30.32,NNE,25,0.1,0.0,89,0.00,CLR,,0.00,WeatherDisplay:10.37,2013-03-08 09:52:00,
2013-03-08 04:53:00,30.2,27.3,30.32,NNE,25,0.0,1.1,89,0.00,CLR,,0.00,WeatherDisplay:10.37,2013-03-08 09:53:00,
2013-03-08 04:54:00,30.2,27.1,30.32,NE,36,0.4,3.0,88,0.00,CLR,,0.00,WeatherDisplay:10.37,2013-03-08 09:54:00,
2013-03-08 04:55:00,30.2,27.1,30.32,NE,38,1.9,3.5,88,0.00,CLR,,0.00,WeatherDisplay:10.37,2013-03-08 09:55:00,
2013-03-08 04:57:00,30.1,27.0,30.32,NE,38,0.1,1.1,88,0.00,CLR,,0.00,WeatherDisplay:10.37,2013-03-08 09:57:00,
2013-03-08 04:58:00,30.1,27.0,30.32,NE,38,0.0,1.1,88,0.00,CLR,,0.00,WeatherDisplay:10.37,2013-03-08 09:58:00,
2013-03-08 04:59:00,30.0,26.9,30.32,NE,38,0.0,0.0,88,0.00,CLR,,0.00,WeatherDisplay:10.37,2013-03-08 09:59:00,
2013-03-08 05:00:00,30.0,26.9,30.32,NE,38,0.0,0.0,88,0.00,CLR,,0.00,WeatherDisplay:10.37,2013-03-08 10:00:00,
2013-03-08 05:02:00,29.9,26.8,30.32,NE,38,0.0,0.0,88,0.00,CLR,,0.00,WeatherDisplay:10.37,2013-03-08 10:02:00,
2013-03-08 05:03:00,29.9,26.8,30.32,NE,38,0.0,0.0,88,0.00,CLR,,0.00,WeatherDisplay:10.37,2013-03-08 10:03:00,
2013-03-08 05:04:00,29.8,26.7,30.32,NE,38,0.5,2.3,88,0.00,CLR,,0.00,WeatherDisplay:10.37,2013-03-08 10:04:00,
2013-03-08 05:05:00,29.8,26.7,30.32,NE,38,0.0,2.3,88,0.00,CLR,,0.00,WeatherDisplay:10.37,2013-03-08 10:05:00,
2013-03-08 05:08:00,29.8,27.0,30.32,NE,38,0.0,0.0,89,0.00,CLR,,0.00,WeatherDisplay:10.37,2013-03-08 10:08:00,
2013-03-08 05:09:00,29.7,26.9,30.33,NE,38,0.0,1.1,89,0.00,CLR,,0.00,WeatherDisplay:10.37,2013-03-08 10:09:00,
2013-03-08 05:10:00,29.7,26.9,30.33,NE,38,0.0,0.0,89,0.00,CLR,,0.00,WeatherDisplay:10.37,2013-03-08 10:10:00,
2013-03-08 05:13:00,29.6,26.8,30.33,NE,38,0.0,0.0,89,0.00,CLR,,0.00,WeatherDisplay:10.37,2013-03-08 10:13:00,
2013-03-08 05:15:00,29.6,26.8,30.33,NE,38,0.0,0.0,89,0.00,CLR,,0.00,WeatherDisplay:10.37,2013-03-08 10:15:00,
2013-03-08 05:16:00,29.5,26.7,30.33,NE,38,0.0,0.0,89,0.00,CLR,,0.00,WeatherDisplay:10.37,2013-03-08 10:16:00,
2013-03-08 05:18:00,29.5,26.7,30.33,NE,38,0.0,0.0,89,0.00,CLR,,0.00,WeatherDisplay:10.37,2013-03-08 10:18:00,
2013-03-08 05:19:00,29.5,26.7,30.33,NE,38,0.0,0.0,89,0.00,CLR,,0.00,WeatherDisplay:10.37,2013-03-08 10:19:00,
2013-03-08 05:20:00,29.5,26.9,30.33,NE,38,0.0,0.0,90,0.00,CLR,,0.00,WeatherDisplay:10.37,2013-03-08 10:20:00,
2013-03-08 05:21:00,29.5,26.7,30.33,NE,38,0.0,0.0,89,0.00,CLR,,0.00,WeatherDisplay:10.37,2013-03-08 10:21:00,
2013-03-08 05:23:00,29.4,26.8,30.33,NE,38,0.0,0.0,90,0.00,CLR,,0.00,WeatherDisplay:10.37,2013-03-08 10:23:00,
2013-03-08 05:24:00,29.4,26.8,30.33,NE,38,0.0,0.0,90,0.00,CLR,,0.00,WeatherDisplay:10.37,2013-03-08 10:24:00,
2013-03-08 05:25:00,29.4,26.8,30.33,NE,38,0.8,3.5,90,0.00,CLR,,0.00,WeatherDisplay:10.37,2013-03-08 10:25:00,
2013-03-08 05:26:00,29.4,26.8,30.33,NE,38,0.6,3.5,90,0.00,CLR,,0.00,WeatherDisplay:10.37,2013-03-08 10:26:00,
2013-03-08 05:28:00,29.4,26.8,30.33,NE,38,0.0,0.0,90,0.00,CLR,,0.00,WeatherDisplay:10.37,2013-03-08 10:28:00,
2013-03-08 05:29:00,29.4,26.8,30.33,NE,38,0.0,0.0,90,0.00,CLR,,0.00,WeatherDisplay:10.37,2013-03-08 10:29:00,
2013-03-08 05:30:00,29.4,26.8,30.33,NE,38,0.1,3.5,90,0.00,CLR,,0.00,WeatherDisplay:10.37,2013-03-08 10:30:00,
2013-03-08 05:31:00,29.4,26.8,30.33,NE,38,0.2,1.1,90,0.00,CLR,,0.00,WeatherDisplay:10.37,2013-03-08 10:31:00,
2013-03-08 05:33:00,29.4,26.8,30.33,NE,38,0.0,0.0,90,0.00,CLR,,0.00,WeatherDisplay:10.37,2013-03-08 10:33:00,
2013-03-08 05:34:00,29.4,26.8,30.34,NNE,28,0.5,0.0,90,0.00,CLR,,0.00,WeatherDisplay:10.37,2013-03-08 10:34:00,
2013-03-08 05:35:00,29.4,26.8,30.34,NNE,27,0.0,3.5,90,0.00,CLR,,0.00,WeatherDisplay:10.37,2013-03-08 10:35:00,
2013-03-08 05:36:00,29.4,26.8,30.34,NNE,27,0.0,0.0,90,0.00,CLR,,0.00,WeatherDisplay:10.37,2013-03-08 10:36:00,
2013-03-08 05:38:00,29.4,26.8,30.34,NNE,27,0.3,1.0,90,0.00,CLR,,0.00,WeatherDisplay:10.37,2013-03-08 10:38:00,
2013-03-08 05:40:00,29.3,26.7,30.34,NNE,27,0.0,0.0,90,0.00,CLR,,0.00,WeatherDisplay:10.37,2013-03-08 10:40:00,
2013-03-08 05:41:00,29.3,26.5,30.34,NNE,27,0.0,0.0,89,0.00,CLR,,0.00,WeatherDisplay:10.37,2013-03-08 10:41:00,
2013-03-08 05:43:00,29.2,26.4,30.34,NNE,27,0.0,1.1,89,0.00,CLR,,0.00,WeatherDisplay:10.37,2013-03-08 10:43:00,
2013-03-08 05:45:00,29.1,26.3,30.34,NNE,27,0.0,0.0,89,0.00,CLR,,0.00,WeatherDisplay:10.37,2013-03-08 10:45:00,
2013-03-08 05:46:00,29.0,26.2,30.34,NNE,27,0.0,0.0,89,0.00,CLR,,0.00,WeatherDisplay:10.37,2013-03-08 10:46:00,
2013-03-08 05:48:00,28.9,26.3,30.34,NNE,27,0.0,0.0,90,0.00,CLR,,0.00,WeatherDisplay:10.37,2013-03-08 10:48:00,
2013-03-08 05:50:00,28.9,26.1,30.34,NNE,27,0.0,0.0,89,0.00,CLR,,0.00,WeatherDisplay:10.37,2013-03-08 10:50:00,
2013-03-08 05:51:00,28.9,26.3,30.35,NNE,27,0.2,1.0,90,0.00,CLR,,0.00,WeatherDisplay:10.37,2013-03-08 10:51:00,
2013-03-08 05:54:00,28.9,26.3,30.34,NNE,27,0.0,0.0,90,0.00,CLR,,0.00,WeatherDisplay:10.37,2013-03-08 10:54:00,
2013-03-08 05:55:00,28.9,26.3,30.34,NNE,27,0.0,0.0,90,0.00,CLR,,0.00,WeatherDisplay:10.37,2013-03-08 10:55:00,
2013-03-08 05:56:00,28.9,26.3,30.34,NNE,27,0.0,0.0,90,0.00,CLR,,0.00,WeatherDisplay:10.37,2013-03-08 10:56:00,
2013-03-08 05:59:00,28.8,26.2,30.34,NNE,27,0.1,2.3,90,0.00,CLR,,0.00,WeatherDisplay:10.37,2013-03-08 10:59:00,
2013-03-08 06:00:00,28.8,26.2,30.35,NNE,27,0.0,0.0,90,0.00,CLR,,0.00,WeatherDisplay:10.37,2013-03-08 11:00:00,
2013-03-08 06:02:00,28.8,26.2,30.34,NNE,27,0.0,0.0,90,0.00,CLR,,0.00,WeatherDisplay:10.37,2013-03-08 11:02:00,
2013-03-08 06:04:00,28.7,26.1,30.34,NNE,27,0.0,0.0,90,0.00,CLR,,0.00,WeatherDisplay:10.37,2013-03-08 11:04:00,
2013-03-08 06:05:00,28.7,26.1,30.34,NNE,27,0.0,0.0,90,0.00,CLR,,0.00,WeatherDisplay:10.37,2013-03-08 11:05:00,
2013-03-08 06:06:00,28.7,26.1,30.34,NNE,27,0.0,0.0,90,0.00,CLR,,0.00,WeatherDisplay:10.37,2013-03-08 11:06:00,
2013-03-08 06:07:00,28.7,26.1,30.34,NNE,27,0.0,0.0,90,0.00,CLR,,0.00,WeatherDisplay:10.37,2013-03-08 11:07:00,
2013-03-08 06:09:00,28.6,26.0,30.34,NNE,27,0.0,0.0,90,0.00,CLR,,0.00,WeatherDisplay:10.37,2013-03-08 11:09:00,
2013-03-08 06:10:00,28.6,26.0,30.34,NNE,27,0.0,0.0,90,0.00,CLR,,0.00,WeatherDisplay:10.37,2013-03-08 11:10:00,
2013-03-08 06:11:00,28.6,25.8,30.34,NNE,27,0.0,0.0,89,0.00,CLR,,0.00,WeatherDisplay:10.37,2013-03-08 11:11:00,
2013-03-08 06:12:00,28.5,25.9,30.34,NNE,27,0.0,0.0,90,0.00,CLR,,0.00,WeatherDisplay:10.37,2013-03-08 11:12:00,
2013-03-08 06:14:00,28.5,25.9,30.34,NNE,27,0.0,0.0,90,0.00,CLR,,0.00,WeatherDisplay:10.37,2013-03-08 11:14:00,
2013-03-08 06:15:00,28.5,25.9,30.34,NNE,27,0.0,0.0,90,0.00,CLR,,0.00,WeatherDisplay:10.37,2013-03-08 11:15:00,
2013-03-08 06:16:00,28.5,25.9,30.34,NNE,27,0.0,0.0,90,0.00,CLR,,0.00,WeatherDisplay:10.37,2013-03-08 11:16:00,
2013-03-08 06:17:00,28.5,25.9,30.34,NNE,27,0.0,0.0,90,0.00,CLR,,0.00,WeatherDisplay:10.37,2013-03-08 11:17:00,
2013-03-08 06:19:00,28.4,26.1,30.34,NNE,27,0.0,0.0,91,0.00,CLR,,0.00,WeatherDisplay:10.37,2013-03-08 11:19:00,
2013-03-08 06:20:00,28.4,26.1,30.34,NNE,27,0.0,0.0,91,0.00,CLR,,0.00,WeatherDisplay:10.37,2013-03-08 11:20:00,
2013-03-08 06:21:00,28.4,26.1,30.34,NNE,27,0.0,0.0,91,0.00,CLR,,0.00,WeatherDisplay:10.37,2013-03-08 11:21:00,
2013-03-08 06:22:00,28.4,26.1,30.34,NNE,27,0.0,0.0,91,0.00,CLR,,0.00,WeatherDisplay:10.37,2013-03-08 11:22:00,
2013-03-08 06:24:00,28.4,26.1,30.34,NNE,27,0.0,0.0,91,0.00,CLR,,0.00,WeatherDisplay:10.37,2013-03-08 11:24:00,
2013-03-08 06:25:00,28.4,26.1,30.34,NNE,27,0.0,0.0,91,0.00,CLR,,0.00,WeatherDisplay:10.37,2013-03-08 11:25:00,
2013-03-08 06:26:00,28.4,26.1,30.34,NNE,27,0.0,0.0,91,0.00,CLR,,0.00,WeatherDisplay:10.37,2013-03-08 11:26:00,
2013-03-08 06:28:00,28.3,26.0,30.34,NNE,27,0.0,0.0,91,0.00,CLR,,0.00,WeatherDisplay:10.37,2013-03-08 11:28:00,
2013-03-08 06:29:00,28.3,26.0,30.34,NNE,27,0.0,0.0,91,0.00,CLR,,0.00,WeatherDisplay:10.37,2013-03-08 11:29:00,
2013-03-08 06:31:00,28.3,26.3,30.34,NNE,27,0.0,0.0,92,0.00,CLR,,0.00,WeatherDisplay:10.37,2013-03-08 11:31:00,
2013-03-08 06:33:00,28.3,26.3,30.35,NNE,27,0.0,0.0,92,0.00,CLR,,0.00,WeatherDisplay:10.37,2013-03-08 11:33:00,
2013-03-08 06:34:00,28.2,26.2,30.35,NNE,27,0.0,0.0,92,0.00,CLR,,0.00,WeatherDisplay:10.37,2013-03-08 11:34:00,
2013-03-08 06:36:00,28.2,26.2,30.35,NNE,27,0.3,2.3,92,0.00,CLR,,0.00,WeatherDisplay:10.37,2013-03-08 11:36:00,
2013-03-08 06:38:00,28.2,26.2,30.35,NNE,27,0.0,0.0,92,0.00,CLR,,0.00,WeatherDisplay:10.37,2013-03-08 11:38:00,
2013-03-08 06:39:00,28.2,26.2,30.35,NNE,27,0.0,0.0,92,0.00,CLR,,0.00,WeatherDisplay:10.37,2013-03-08 11:39:00,
2013-03-08 06:41:00,28.1,26.1,30.35,NNE,27,0.0,0.0,92,0.00,CLR,,0.00,WeatherDisplay:10.37,2013-03-08 11:41:00,
2013-03-08 06:43:00,28.1,26.1,30.35,NNE,27,0.0,0.0,92,0.00,CLR,,0.00,WeatherDisplay:10.37,2013-03-08 11:43:00,
2013-03-08 06:44:00,28.1,26.1,30.35,NNE,27,0.0,0.0,92,0.00,CLR,,0.00,WeatherDisplay:10.37,2013-03-08 11:44:00,
2013-03-08 06:46:00,28.0,26.0,30.35,NNE,27,0.0,0.0,92,0.00,CLR,,0.00,WeatherDisplay:10.37,2013-03-08 11:46:00,
2013-03-08 06:49:00,28.0,26.0,30.35,NNE,27,0.0,0.0,92,0.00,CLR,,0.00,WeatherDisplay:10.37,2013-03-08 11:49:00,
2013-03-08 06:51:00,28.0,26.0,30.35,NNE,27,0.0,0.0,92,0.00,CLR,,0.00,WeatherDisplay:10.37,2013-03-08 11:51:00,
2013-03-08 06:54:00,28.0,25.7,30.35,NNE,27,0.0,0.0,91,0.00,CLR,,0.00,WeatherDisplay:10.37,2013-03-08 11:54:00,
2013-03-08 06:55:00,27.9,25.6,30.34,NNE,27,0.0,0.0,91,0.00,CLR,,0.00,WeatherDisplay:10.37,2013-03-08 11:55:00,
2013-03-08 06:56:00,27.9,25.9,30.34,NNE,27,0.1,0.0,92,0.00,CLR,,0.00,WeatherDisplay:10.37,2013-03-08 11:56:00,
2013-03-08 06:59:00,27.9,25.9,30.35,NNE,27,0.0,0.0,92,0.00,CLR,,0.00,WeatherDisplay:10.37,2013-03-08 11:59:00,
2013-03-08 07:00:00,27.9,25.9,30.34,NNE,27,0.0,0.0,92,0.00,CLR,,0.00,WeatherDisplay:10.37,2013-03-08 12:00:00,
2013-03-08 07:01:00,27.9,25.9,30.35,NNE,27,0.0,0.0,92,0.00,CLR,,0.00,WeatherDisplay:10.37,2013-03-08 12:01:00,
2013-03-08 07:02:00,27.9,25.9,30.35,NNE,27,0.0,0.0,92,0.00,CLR,,0.00,WeatherDisplay:10.37,2013-03-08 12:02:00,
2013-03-08 07:04:00,27.8,25.8,30.35,NNE,27,0.0,0.0,92,0.00,CLR,,0.00,WeatherDisplay:10.37,2013-03-08 12:04:00,
2013-03-08 07:05:00,27.8,25.8,30.35,NNE,27,0.0,0.0,92,0.00,CLR,,0.00,WeatherDisplay:10.37,2013-03-08 12:05:00,
2013-03-08 07:06:00,27.8,25.8,30.35,NNE,27,0.0,0.0,92,0.00,CLR,,0.00,WeatherDisplay:10.37,2013-03-08 12:06:00,
2013-03-08 07:07:00,27.7,25.7,30.35,NNE,27,0.0,0.0,92,0.00,CLR,,0.00,WeatherDisplay:10.37,2013-03-08 12:07:00,
2013-03-08 07:09:00,27.7,25.4,30.35,NNE,27,0.0,0.0,91,0.00,CLR,,0.00,WeatherDisplay:10.37,2013-03-08 12:09:00,
2013-03-08 07:10:00,27.7,25.4,30.35,NNE,27,0.0,1.1,91,0.00,CLR,,0.00,WeatherDisplay:10.37,2013-03-08 12:10:00,
2013-03-08 07:11:00,27.7,25.7,30.35,NNE,27,0.0,0.0,92,0.00,CLR,,0.00,WeatherDisplay:10.37,2013-03-08 12:11:00,
2013-03-08 07:12:00,27.7,25.7,30.35,NNE,27,0.0,0.0,92,0.00,CLR,,0.00,WeatherDisplay:10.37,2013-03-08 12:12:00,
2013-03-08 07:14:00,27.6,25.6,30.35,NNE,27,0.0,0.0,92,0.00,CLR,,0.00,WeatherDisplay:10.37,2013-03-08 12:14:00,
2013-03-08 07:15:00,27.6,25.6,30.35,NNE,27,0.0,0.0,92,0.00,CLR,,0.00,WeatherDisplay:10.37,2013-03-08 12:15:00,
2013-03-08 07:16:00,27.6,25.6,30.35,NNE,27,0.0,0.0,92,0.00,CLR,,0.00,WeatherDisplay:10.37,2013-03-08 12:16:00,
2013-03-08 07:17:00,27.6,25.6,30.35,NNE,27,0.0,0.0,92,0.00,CLR,,0.00,WeatherDisplay:10.37,2013-03-08 12:17:00,
2013-03-08 07:20:00,27.6,25.6,30.35,NNE,29,0.4,2.3,92,0.00,CLR,,0.00,WeatherDisplay:10.37,2013-03-08 12:20:00,
2013-03-08 07:21:00,27.6,25.6,30.36,NNE,29,0.0,0.0,92,0.00,CLR,,0.00,WeatherDisplay:10.37,2013-03-08 12:21:00,
2013-03-08 07:23:00,27.6,25.6,30.36,NNE,29,0.0,0.0,92,0.00,CLR,,0.00,WeatherDisplay:10.37,2013-03-08 12:23:00,
2013-03-08 07:25:00,27.6,25.6,30.36,NNE,25,0.4,2.0,92,0.00,CLR,,0.00,WeatherDisplay:10.37,2013-03-08 12:25:00,
2013-03-08 07:26:00,27.6,25.6,30.36,NNE,24,0.0,0.0,92,0.00,CLR,,0.00,WeatherDisplay:10.37,2013-03-08 12:26:00,
2013-03-08 07:28:00,27.5,25.5,30.35,NNE,24,0.1,0.0,92,0.00,CLR,,0.00,WeatherDisplay:10.37,2013-03-08 12:28:00,
2013-03-08 07:30:00,27.6,25.6,30.36,NNE,24,0.0,2.3,92,0.00,CLR,,0.00,WeatherDisplay:10.37,2013-03-08 12:30:00,
2013-03-08 07:31:00,27.6,25.6,30.36,NNE,25,0.0,0.0,92,0.00,CLR,,0.00,WeatherDisplay:10.37,2013-03-08 12:31:00,
2013-03-08 07:33:00,27.7,25.7,30.36,NNE,25,0.7,3.5,92,0.00,CLR,,0.00,WeatherDisplay:10.37,2013-03-08 12:33:00,
2013-03-08 07:35:00,27.8,26.0,30.36,NNE,25,0.0,0.0,93,0.00,CLR,,0.00,WeatherDisplay:10.37,2013-03-08 12:35:00,
2013-03-08 07:36:00,27.9,26.1,30.36,NNE,25,0.1,1.1,93,0.00,CLR,,0.00,WeatherDisplay:10.37,2013-03-08 12:36:00,
2013-03-08 07:38:00,28.0,26.2,30.36,NNE,25,0.3,2.3,93,0.00,CLR,,0.00,WeatherDisplay:10.37,2013-03-08 12:38:00,
2013-03-08 07:40:00,28.0,26.2,30.36,NNE,25,1.1,3.5,93,0.00,CLR,,0.00,WeatherDisplay:10.37,2013-03-08 12:40:00,
2013-03-08 07:41:00,28.1,26.1,30.36,NNE,29,0.2,3.5,92,0.00,CLR,,0.00,WeatherDisplay:10.37,2013-03-08 12:41:00,
2013-03-08 07:43:00,28.2,26.4,30.36,North,358,0.9,0.0,93,0.00,CLR,,0.00,WeatherDisplay:10.37,2013-03-08 12:43:00,
2013-03-08 07:45:00,28.2,26.2,30.37,NE,40,0.7,2.3,92,0.00,CLR,,0.00,WeatherDisplay:10.37,2013-03-08 12:45:00,
2013-03-08 07:47:00,28.3,26.3,30.37,NE,39,2.0,3.5,92,0.00,CLR,,0.00,WeatherDisplay:10.37,2013-03-08 12:47:00,
2013-03-08 07:48:00,28.4,26.4,30.37,NNE,25,1.9,5.0,92,0.00,CLR,,0.00,WeatherDisplay:10.37,2013-03-08 12:48:00,
2013-03-08 07:50:00,28.5,26.5,30.37,NNE,30,0.0,0.0,92,0.00,CLR,,0.00,WeatherDisplay:10.37,2013-03-08 12:50:00,
2013-03-08 07:51:00,28.5,26.5,30.37,NNE,30,0.0,1.1,92,0.00,CLR,,0.00,WeatherDisplay:10.37,2013-03-08 12:51:00,
2013-03-08 07:52:00,28.5,26.5,30.37,NNE,27,0.5,4.0,92,0.00,CLR,,0.00,WeatherDisplay:10.37,2013-03-08 12:52:00,
2013-03-08 07:53:00,28.7,26.7,30.37,NNE,14,1.2,4.6,92,0.00,CLR,,0.00,WeatherDisplay:10.37,2013-03-08 12:53:00,
2013-03-08 07:55:00,28.8,26.8,30.37,NE,50,0.8,4.6,92,0.00,CLR,,0.00,WeatherDisplay:10.37,2013-03-08 12:55:00,
2013-03-08 07:56:00,28.8,26.8,30.37,NNE,17,1.9,4.6,92,0.00,CLR,,0.00,WeatherDisplay:10.37,2013-03-08 12:56:00,
2013-03-08 07:57:00,28.9,26.9,30.37,NNE,19,1.5,3.5,92,0.00,CLR,,0.00,WeatherDisplay:10.37,2013-03-08 12:57:00,
2013-03-08 07:59:00,29.1,27.1,30.38,NE,54,1.7,4.0,92,0.00,CLR,,0.00,WeatherDisplay:10.37,2013-03-08 12:59:00,
2013-03-08 08:00:00,29.1,27.1,30.38,NE,56,2.2,4.0,92,0.00,CLR,,0.00,WeatherDisplay:10.37,2013-03-08 13:00:00,
2013-03-08 08:01:00,29.2,27.2,30.38,NE,37,1.5,4.6,92,0.00,CLR,,0.00,WeatherDisplay:10.37,2013-03-08 13:01:00,
2013-03-08 08:02:00,29.3,27.3,30.38,North,10,1.7,6.0,92,0.00,CLR,,0.00,WeatherDisplay:10.37,2013-03-08 13:02:00,
2013-03-08 08:04:00,29.5,27.2,30.38,NNE,25,3.2,9.2,91,0.00,CLR,,0.00,WeatherDisplay:10.37,2013-03-08 13:04:00,
2013-03-08 08:05:00,29.6,27.0,30.38,NNE,27,2.3,4.6,90,0.00,CLR,,0.00,WeatherDisplay:10.37,2013-03-08 13:05:00,
2013-03-08 08:06:00,29.6,27.0,30.38,North,11,1.4,5.8,90,0.00,CLR,,0.00,WeatherDisplay:10.37,2013-03-08 13:06:00,
2013-03-08 08:07:00,29.8,27.2,30.38,NNE,23,3.5,4.6,90,0.00,CLR,,0.00,WeatherDisplay:10.37,2013-03-08 13:07:00,
2013-03-08 08:09:00,29.9,27.3,30.38,NE,38,0.8,3.5,90,0.00,CLR,,0.00,WeatherDisplay:10.37,2013-03-08 13:09:00,
2013-03-08 08:10:00,29.9,27.3,30.38,NNE,33,1.8,3.5,90,0.00,CLR,,0.00,WeatherDisplay:10.37,2013-03-08 13:10:00,
2013-03-08 08:11:00,30.0,27.4,30.39,NE,39,2.4,5.0,90,0.00,CLR,,0.00,WeatherDisplay:10.37,2013-03-08 13:11:00,
2013-03-08 08:12:00,30.1,27.5,30.39,NE,42,2.5,8.1,90,0.00,CLR,,0.00,WeatherDisplay:10.37,2013-03-08 13:12:00,
2013-03-08 08:14:00,30.2,27.3,30.39,NE,35,2.9,5.8,89,0.00,CLR,,0.00,WeatherDisplay:10.37,2013-03-08 13:14:00,
2013-03-08 08:15:00,30.3,27.4,30.38,NNE,13,2.1,4.6,89,0.00,CLR,,0.00,WeatherDisplay:10.37,2013-03-08 13:15:00,
2013-03-08 08:16:00,30.4,27.5,30.38,NNE,22,3.1,4.0,89,0.00,CLR,,0.00,WeatherDisplay:10.37,2013-03-08 13:16:00,
2013-03-08 08:17:00,30.5,27.6,30.38,NNE,31,2.5,4.6,89,0.00,CLR,,0.00,WeatherDisplay:10.37,2013-03-08 13:17:00,
2013-03-08 08:19:00,30.6,27.5,30.38,NNE,22,4.4,8.1,88,0.00,CLR,,0.00,WeatherDisplay:10.37,2013-03-08 13:19:00,
2013-03-08 08:20:00,30.6,27.5,30.39,North,356,5.3,8.1,88,0.00,CLR,,0.00,WeatherDisplay:10.37,2013-03-08 13:20:00,
2013-03-08 08:21:00,30.7,27.3,30.39,NNE,14,2.0,8.1,87,0.00,CLR,,0.00,WeatherDisplay:10.37,2013-03-08 13:21:00,
2013-03-08 08:23:00,30.8,27.4,30.39,NNE,15,4.9,8.0,87,0.00,CLR,,0.00,WeatherDisplay:10.37,2013-03-08 13:23:00,
2013-03-08 08:25:00,30.9,27.5,30.39,NE,34,1.4,3.5,87,0.00,CLR,,0.00,WeatherDisplay:10.37,2013-03-08 13:25:00,
2013-03-08 08:26:00,30.9,27.5,30.39,North,2,2.7,4.6,87,0.00,CLR,,0.00,WeatherDisplay:10.37,2013-03-08 13:26:00,
2013-03-08 08:28:00,31.1,27.7,30.39,NNE,14,3.1,10.0,87,0.00,CLR,,0.00,WeatherDisplay:10.37,2013-03-08 13:28:00,
2013-03-08 08:30:00,31.1,27.4,30.39,NNE,13,3.9,10.4,86,0.00,CLR,,0.00,WeatherDisplay:10.37,2013-03-08 13:30:00,
2013-03-08 08:31:00,31.2,27.5,30.39,North,10,4.8,9.2,86,0.00,CLR,,0.00,WeatherDisplay:10.37,2013-03-08 13:31:00,
2013-03-08 08:34:00,31.4,27.7,30.39,NE,40,2.8,5.8,86,0.00,CLR,,0.00,WeatherDisplay:10.37,2013-03-08 13:34:00,
2013-03-08 08:35:00,31.5,27.8,30.39,ENE,60,5.4,6.9,86,0.00,CLR,,0.00,WeatherDisplay:10.37,2013-03-08 13:35:00,
2013-03-08 08:36:00,31.6,27.9,30.39,NE,46,2.4,8.1,86,0.00,CLR,,0.00,WeatherDisplay:10.37,2013-03-08 13:36:00,
2013-03-08 08:39:00,31.8,28.4,30.39,NNE,25,2.1,5.8,87,0.00,CLR,,0.00,WeatherDisplay:10.37,2013-03-08 13:39:00,
2013-03-08 08:40:00,31.8,28.4,30.39,NNE,17,2.5,6.9,87,0.00,CLR,,0.00,WeatherDisplay:10.37,2013-03-08 13:40:00,
2013-03-08 08:41:00,31.9,28.2,30.39,North,1,2.6,3.5,86,0.00,CLR,,0.00,WeatherDisplay:10.37,2013-03-08 13:41:00,
2013-03-08 08:44:00,32.1,28.1,30.39,NNE,28,1.3,12.7,85,0.00,CLR,,0.00,WeatherDisplay:10.37,2013-03-08 13:44:00,
2013-03-08 08:45:00,32.2,28.2,30.39,North,0,0.6,3.5,85,0.00,CLR,,0.00,WeatherDisplay:10.37,2013-03-08 13:45:00,
2013-03-08 08:47:00,32.2,28.5,30.39,NE,46,2.0,3.5,86,0.00,CLR,,0.00,WeatherDisplay:10.37,2013-03-08 13:47:00,
2013-03-08 08:49:00,32.4,28.4,30.39,ENE,65,1.6,8.1,85,0.00,CLR,,0.00,WeatherDisplay:10.37,2013-03-08 13:49:00,
2013-03-08 08:50:00,32.5,28.5,30.39,NNE,18,2.1,3.5,85,0.00,CLR,,0.00,WeatherDisplay:10.37,2013-03-08 13:50:00,
2013-03-08 08:52:00,32.6,28.6,30.39,NNE,21,5.1,8.1,85,0.00,CLR,,0.00,WeatherDisplay:10.37,2013-03-08 13:52:00,
2013-03-08 08:54:00,32.7,28.7,30.39,NNE,17,0.7,3.5,85,0.00,CLR,,0.00,WeatherDisplay:10.37,2013-03-08 13:54:00,
2013-03-08 08:55:00,32.9,29.2,30.39,ENE,67,3.9,6.9,86,0.00,CLR,,0.00,WeatherDisplay:10.37,2013-03-08 13:55:00,
2013-03-08 08:56:00,33.0,29.3,30.39,NNE,17,3.5,5.8,86,0.00,CLR,,0.00,WeatherDisplay:10.37,2013-03-08 13:56:00,
2013-03-08 08:57:00,33.1,29.1,30.39,NNE,15,4.7,6.9,85,0.00,CLR,,0.00,WeatherDisplay:10.37,2013-03-08 13:57:00,
2013-03-08 08:59:00,33.3,29.3,30.39,NE,48,3.9,7.0,85,0.00,CLR,,0.00,WeatherDisplay:10.37,2013-03-08 13:59:00,
2013-03-08 09:00:00,33.4,29.4,30.39,NE,49,5.2,9.2,85,0.00,CLR,,0.00,WeatherDisplay:10.37,2013-03-08 14:00:00,
2013-03-08 09:01:00,33.5,29.5,30.39,NE,45,3.9,6.9,85,0.00,CLR,,0.00,WeatherDisplay:10.37,2013-03-08 14:01:00,
2013-03-08 09:02:00,33.5,29.5,30.39,NE,37,5.3,6.9,85,0.00,CLR,,0.00,WeatherDisplay:10.37,2013-03-08 14:02:00,
2013-03-08 09:04:00,33.7,29.1,30.39,North,2,3.9,8.1,83,0.00,CLR,,0.00,WeatherDisplay:10.37,2013-03-08 14:04:00,
2013-03-08 09:05:00,33.8,29.5,30.39,ENE,61,5.9,7.0,84,0.00,CLR,,0.00,WeatherDisplay:10.37,2013-03-08 14:05:00,
2013-03-08 09:06:00,33.8,29.5,30.39,ENE,57,4.6,9.2,84,0.00,CLR,,0.00,WeatherDisplay:10.37,2013-03-08 14:06:00,
2013-03-08 09:07:00,33.9,29.9,30.39,ENE,63,2.1,8.1,85,0.00,CLR,,0.00,WeatherDisplay:10.37,2013-03-08 14:07:00,
2013-03-08 09:09:00,34.1,30.4,30.39,NE,53,4.6,7.0,86,0.00,CLR,,0.00,WeatherDisplay:10.37,2013-03-08 14:09:00,
2013-03-08 09:10:00,34.2,30.4,30.39,NNE,24,3.6,6.9,86,0.00,CLR,,0.00,WeatherDisplay:10.37,2013-03-08 14:10:00,
2013-03-08 09:11:00,34.3,30.3,30.39,East,84,5.0,7.0,85,0.00,CLR,,0.00,WeatherDisplay:10.37,2013-03-08 14:11:00,
2013-03-08 09:12:00,34.3,30.3,30.39,ENE,77,6.4,7.0,85,0.00,CLR,,0.00,WeatherDisplay:10.37,2013-03-08 14:12:00,
2013-03-08 09:14:00,34.6,30.6,30.39,ENE,66,5.9,6.9,85,0.00,CLR,,0.00,WeatherDisplay:10.37,2013-03-08 14:14:00,
2013-03-08 09:16:00,34.7,30.7,30.39,ENE,63,5.3,8.1,85,0.00,CLR,,0.00,WeatherDisplay:10.37,2013-03-08 14:16:00,
2013-03-08 09:17:00,34.8,30.5,30.39,East,89,3.5,6.9,84,0.00,CLR,,0.00,WeatherDisplay:10.37,2013-03-08 14:17:00,
2013-03-08 09:19:00,35.0,30.4,30.39,North,6,4.9,8.1,83,0.00,CLR,,0.00,WeatherDisplay:10.37,2013-03-08 14:19:00,
2013-03-08 09:21:00,35.1,30.5,30.39,NE,54,5.0,8.1,83,0.00,CLR,,0.00,WeatherDisplay:10.37,2013-03-08 14:21:00,
2013-03-08 09:22:00,35.2,30.3,30.39,ENE,59,5.2,8.1,82,0.00,CLR,,0.00,WeatherDisplay:10.37,2013-03-08 14:22:00,
2013-03-08 09:24:00,35.4,30.1,30.39,NE,45,5.2,6.9,81,0.00,CLR,,0.00,WeatherDisplay:10.37,2013-03-08 14:24:00,
2013-03-08 09:26:00,35.5,30.2,30.39,ENE,73,4.8,9.2,81,0.00,CLR,,0.00,WeatherDisplay:10.37,2013-03-08 14:26:00,
2013-03-08 09:27:00,35.6,30.9,30.39,ENE,67,5.1,10.4,83,0.00,CLR,,0.00,WeatherDisplay:10.37,2013-03-08 14:27:00,
2013-03-08 09:29:00,35.8,30.8,30.39,NNE,31,4.2,6.9,82,0.00,CLR,,0.00,WeatherDisplay:10.37,2013-03-08 14:29:00,
2013-03-08 09:31:00,35.9,30.6,30.39,NE,48,1.9,5.8,81,0.00,CLR,,0.00,WeatherDisplay:10.37,2013-03-08 14:31:00,
2013-03-08 09:32:00,35.9,30.6,30.39,North,10,2.6,5.8,81,0.00,CLR,,0.00,WeatherDisplay:10.37,2013-03-08 14:32:00,
2013-03-08 09:35:00,36.1,30.8,30.39,NE,54,5.4,9.2,81,0.00,CLR,,0.00,WeatherDisplay:10.37,2013-03-08 14:35:00,
2013-03-08 09:36:00,36.1,30.8,30.39,ENE,57,4.6,6.9,81,0.00,CLR,,0.00,WeatherDisplay:10.37,2013-03-08 14:36:00,
2013-03-08 09:37:00,36.2,30.9,30.39,ENE,59,4.9,8.1,81,0.00,CLR,,0.00,WeatherDisplay:10.37,2013-03-08 14:37:00,
2013-03-08 09:40:00,36.3,31.3,30.39,NE,52,0.7,3.5,82,0.00,CLR,,0.00,WeatherDisplay:10.37,2013-03-08 14:40:00,
2013-03-08 09:41:00,36.4,29.9,30.39,NNE,30,2.4,3.5,77,0.00,CLR,,0.00,WeatherDisplay:10.37,2013-03-08 14:41:00,
2013-03-08 09:42:00,36.5,30.3,30.39,NE,53,4.7,6.9,78,0.00,CLR,,0.00,WeatherDisplay:10.37,2013-03-08 14:42:00,
2013-03-08 09:45:00,36.6,30.7,30.39,ENE,73,4.8,6.9,79,0.00,CLR,,0.00,WeatherDisplay:10.37,2013-03-08 14:45:00,
2013-03-08 09:46:00,36.8,31.2,30.39,ENE,64,4.6,6.9,80,0.00,CLR,,0.00,WeatherDisplay:10.37,2013-03-08 14:46:00,
2013-03-08 09:47:00,36.8,31.2,30.39,NNE,20,2.4,5.8,80,0.00,CLR,,0.00,WeatherDisplay:10.37,2013-03-08 14:47:00,
2013-03-08 09:50:00,37.1,31.2,30.39,ENE,67,5.8,8.1,79,0.00,CLR,,0.00,WeatherDisplay:10.37,2013-03-08 14:50:00,
2013-03-08 09:51:00,37.2,30.7,30.39,NE,40,4.5,6.9,77,0.00,CLR,,0.00,WeatherDisplay:10.37,2013-03-08 14:51:00,
2013-03-08 09:52:00,37.2,30.7,30.39,East,81,4.4,5.8,77,0.00,CLR,,0.00,WeatherDisplay:10.37,2013-03-08 14:52:00,
2013-03-08 09:53:00,37.2,31.3,30.39,East,90,3.3,6.9,79,0.00,CLR,,0.00,WeatherDisplay:10.37,2013-03-08 14:53:00,
2013-03-08 09:55:00,37.5,31.6,30.39,ENE,75,0.6,2.3,79,0.00,CLR,,0.00,WeatherDisplay:10.37,2013-03-08 14:55:00,
2013-03-08 09:56:00,37.6,31.4,30.39,North,9,2.6,5.8,78,0.00,CLR,,0.00,WeatherDisplay:10.37,2013-03-08 14:56:00,
2013-03-08 09:57:00,37.6,31.0,30.39,NNE,12,4.6,5.8,77,0.00,CLR,,0.00,WeatherDisplay:10.37,2013-03-08 14:57:00,
2013-03-08 09:58:00,37.7,31.1,30.39,North,5,4.4,6.9,77,0.00,CLR,,0.00,WeatherDisplay:10.37,2013-03-08 14:58:00,
2013-03-08 10:00:00,37.8,31.6,30.39,NE,52,2.9,5.8,78,0.00,CLR,,0.00,WeatherDisplay:10.37,2013-03-08 15:00:00,
2013-03-08 10:01:00,37.9,32.3,30.39,NE,47,4.9,8.1,80,0.00,CLR,,0.00,WeatherDisplay:10.37,2013-03-08 15:01:00,
2013-03-08 10:02:00,38.0,32.4,30.39,ENE,62,4.0,8.1,80,0.00,CLR,,0.00,WeatherDisplay:10.37,2013-03-08 15:02:00,
2013-03-08 10:03:00,38.1,32.2,30.39,East,93,3.8,5.8,79,0.00,CLR,,0.00,WeatherDisplay:10.37,2013-03-08 15:03:00,
2013-03-08 10:05:00,38.4,32.5,30.39,ENE,69,6.6,9.2,79,0.00,CLR,,0.00,WeatherDisplay:10.37,2013-03-08 15:05:00,
2013-03-08 10:06:00,38.6,32.3,30.39,ENE,67,6.5,8.1,78,0.00,CLR,,0.00,WeatherDisplay:10.37,2013-03-08 15:06:00,
2013-03-08 10:07:00,38.7,32.4,30.39,ENE,65,5.3,8.1,78,0.00,CLR,,0.00,WeatherDisplay:10.37,2013-03-08 15:07:00,
2013-03-08 10:08:00,38.8,32.2,30.39,ENE,62,4.6,6.9,77,0.00,CLR,,0.00,WeatherDisplay:10.37,2013-03-08 15:08:00,
2013-03-08 10:10:00,39.0,32.4,30.38,NE,56,3.2,6.9,77,0.00,CLR,,0.00,WeatherDisplay:10.37,2013-03-08 15:10:00,
2013-03-08 10:11:00,39.2,32.6,30.38,NNE,26,4.4,9.2,77,0.00,CLR,,0.00,WeatherDisplay:10.37,2013-03-08 15:11:00,
2013-03-08 10:12:00,39.3,32.7,30.38,ENE,65,4.2,6.9,77,0.00,CLR,,0.00,WeatherDisplay:10.37,2013-03-08 15:12:00,
2013-03-08 10:13:00,39.4,32.5,30.38,ENE,61,3.4,6.9,76,0.00,CLR,,0.00,WeatherDisplay:10.37,2013-03-08 15:13:00,
2013-03-08 10:15:00,39.6,33.0,30.38,East,88,5.1,6.0,77,0.00,CLR,,0.00,WeatherDisplay:10.37,2013-03-08 15:15:00,
2013-03-08 10:16:00,39.8,33.2,30.38,NE,53,5.9,8.1,77,0.00,CLR,,0.00,WeatherDisplay:10.37,2013-03-08 15:16:00,
2013-03-08 10:17:00,39.9,32.6,30.38,ENE,62,3.7,6.0,75,0.00,CLR,,0.00,WeatherDisplay:10.37,2013-03-08 15:17:00,
2013-03-08 10:18:00,39.9,32.9,30.38,ENE,71,5.2,7.0,76,0.00,CLR,,0.00,WeatherDisplay:10.37,2013-03-08 15:18:00,
2013-03-08 10:20:00,40.2,32.9,30.38,NNE,26,1.4,9.2,75,0.00,CLR,,0.00,WeatherDisplay:10.37,2013-03-08 15:20:00,
2013-03-08 10:21:00,40.3,32.0,30.38,North,8,4.0,8.1,72,0.00,CLR,,0.00,WeatherDisplay:10.37,2013-03-08 15:21:00,
2013-03-08 10:23:00,40.3,31.6,30.38,ENE,73,9.2,11.5,71,0.00,CLR,,0.00,WeatherDisplay:10.37,2013-03-08 15:23:00,
2013-03-08 10:24:00,40.3,32.3,30.38,ENE,69,8.0,11.5,73,0.00,CLR,,0.00,WeatherDisplay:10.37,2013-03-08 15:24:00,
2013-03-08 10:25:00,40.6,33.6,30.38,East,82,7.8,11.5,76,0.00,CLR,,0.00,WeatherDisplay:10.37,2013-03-08 15:25:00,
2013-03-08 10:26:00,40.8,33.5,30.38,East,83,6.8,11.5,75,0.00,CLR,,0.00,WeatherDisplay:10.37,2013-03-08 15:26:00,
2013-03-08 10:28:00,41.0,33.3,30.38,ENE,69,5.2,8.1,74,0.00,CLR,,0.00,WeatherDisplay:10.37,2013-03-08 15:28:00,
2013-03-08 10:29:00,41.1,33.1,30.37,NE,49,3.5,6.9,73,0.00,CLR,,0.00,WeatherDisplay:10.37,2013-03-08 15:29:00,
2013-03-08 10:30:00,41.2,32.9,30.38,ENE,76,4.0,8.1,72,0.00,CLR,,0.00,WeatherDisplay:10.37,2013-03-08 15:30:00,
2013-03-08 10:31:00,41.3,33.3,30.38,ENE,61,2.8,4.6,73,0.00,CLR,,0.00,WeatherDisplay:10.37,2013-03-08 15:31:00,
2013-03-08 10:33:00,41.4,32.3,30.38,NE,53,1.8,5.0,70,0.00,CLR,,0.00,WeatherDisplay:10.37,2013-03-08 15:33:00,
2013-03-08 10:34:00,41.4,32.7,30.38,ENE,65,4.1,6.9,71,0.00,CLR,,0.00,WeatherDisplay:10.37,2013-03-08 15:34:00,
2013-03-08 10:35:00,41.5,32.4,30.37,North,11,2.6,7.0,70,0.00,CLR,,0.00,WeatherDisplay:10.37,2013-03-08 15:35:00,
2013-03-08 10:36:00,41.5,32.1,30.38,North,9,4.7,6.9,69,0.00,CLR,,0.00,WeatherDisplay:10.37,2013-03-08 15:36:00,
2013-03-08 10:38:00,41.5,33.1,30.37,East,79,7.2,10.0,72,0.00,CLR,,0.00,WeatherDisplay:10.37,2013-03-08 15:38:00,
2013-03-08 10:39:00,41.6,33.6,30.38,East,88,9.4,12.7,73,0.00,CLR,,0.00,WeatherDisplay:10.37,2013-03-08 15:39:00,
2013-03-08 10:40:00,41.9,33.9,30.37,SE,131,8.4,11.5,73,0.00,CLR,,0.00,WeatherDisplay:10.37,2013-03-08 15:40:00,
2013-03-08 10:41:00,42.0,34.0,30.37,East,98,7.5,10.4,73,0.00,CLR,,0.00,WeatherDisplay:10.37,2013-03-08 15:41:00,
2013-03-08 10:43:00,42.3,34.3,30.38,ESE,108,6.4,9.2,73,0.00,CLR,,0.00,WeatherDisplay:10.37,2013-03-08 15:43:00,
2013-03-08 10:44:00,42.4,34.4,30.38,East,90,5.7,8.1,73,0.00,CLR,,0.00,WeatherDisplay:10.37,2013-03-08 15:44:00,
2013-03-08 10:46:00,42.7,34.3,30.37,East,83,6.5,10.4,72,0.00,CLR,,0.00,WeatherDisplay:10.37,2013-03-08 15:46:00,
2013-03-08 10:47:00,42.8,34.0,30.37,East,89,5.8,8.1,71,0.00,CLR,,0.00,WeatherDisplay:10.37,2013-03-08 15:47:00,
2013-03-08 10:48:00,43.0,33.9,30.38,East,84,5.5,8.1,70,0.00,CLR,,0.00,WeatherDisplay:10.37,2013-03-08 15:48:00,
2013-03-08 10:49:00,43.1,34.0,30.37,East,91,5.6,11.0,70,0.00,CLR,,0.00,WeatherDisplay:10.37,2013-03-08 15:49:00,
2013-03-08 10:51:00,43.3,34.2,30.37,East,97,6.3,9.2,70,0.00,CLR,,0.00,WeatherDisplay:10.37,2013-03-08 15:51:00,
2013-03-08 10:52:00,43.4,34.3,30.37,East,86,6.7,10.4,70,0.00,CLR,,0.00,WeatherDisplay:10.37,2013-03-08 15:52:00,
2013-03-08 10:54:00,43.6,34.5,30.37,ENE,73,2.3,5.0,70,0.00,CLR,,0.00,WeatherDisplay:10.37,2013-03-08 15:54:00,
2013-03-08 10:56:00,43.9,34.4,30.37,ENE,73,5.8,9.0,69,0.00,CLR,,0.00,WeatherDisplay:10.37,2013-03-08 15:56:00,
2013-03-08 10:57:00,43.9,34.4,30.37,ESE,104,6.6,9.2,69,0.00,CLR,,0.00,WeatherDisplay:10.37,2013-03-08 15:57:00,
2013-03-08 10:59:00,44.1,34.2,30.37,ENE,67,8.0,10.4,68,0.00,CLR,,0.00,WeatherDisplay:10.37,2013-03-08 15:59:00,
2013-03-08 11:01:00,44.3,34.8,30.37,NE,49,2.2,5.8,69,0.00,CLR,,0.00,WeatherDisplay:10.37,2013-03-08 16:01:00,
2013-03-08 11:02:00,44.4,35.2,30.37,ESE,111,7.8,7.8,70,0.00,CLR,,0.00,WeatherDisplay:10.37,2013-03-08 16:02:00,
2013-03-08 11:04:00,44.6,34.7,30.37,East,80,9.0,15.0,68,0.00,CLR,,0.00,WeatherDisplay:10.37,2013-03-08 16:04:00,
2013-03-08 11:06:00,44.8,34.1,30.37,East,86,8.1,11.5,66,0.00,CLR,,0.00,WeatherDisplay:10.37,2013-03-08 16:06:00,
2013-03-08 11:08:00,45.0,34.3,30.37,ENE,77,7.8,12.7,66,0.00,CLR,,0.00,WeatherDisplay:10.37,2013-03-08 16:08:00,
2013-03-08 11:09:00,45.2,35.3,30.37,East,99,3.7,9.2,68,0.00,CLR,,0.00,WeatherDisplay:10.37,2013-03-08 16:09:00,
2013-03-08 11:11:00,45.4,34.7,30.37,ESE,120,7.5,10.4,66,0.00,CLR,,0.00,WeatherDisplay:10.37,2013-03-08 16:11:00,
2013-03-08 11:13:00,45.5,35.5,30.37,ESE,113,5.9,6.9,68,0.00,CLR,,0.00,WeatherDisplay:10.37,2013-03-08 16:13:00,
2013-03-08 11:14:00,45.7,35.4,30.37,East,91,4.0,6.9,67,0.00,CLR,,0.00,WeatherDisplay:10.37,2013-03-08 16:14:00,
2013-03-08 11:16:00,45.8,34.7,30.37,ESE,112,6.9,13.8,65,0.00,CLR,,0.00,WeatherDisplay:10.37,2013-03-08 16:16:00,
2013-03-08 11:18:00,45.9,34.8,30.37,ENE,72,8.4,15.0,65,0.00,CLR,,0.00,WeatherDisplay:10.37,2013-03-08 16:18:00,
2013-03-08 11:19:00,46.0,34.9,30.37,ESE,111,5.3,10.4,65,0.00,CLR,,0.00,WeatherDisplay:10.37,2013-03-08 16:19:00,
2013-03-08 11:21:00,46.2,35.5,30.37,ENE,64,6.0,9.2,66,0.00,CLR,,0.00,WeatherDisplay:10.37,2013-03-08 16:21:00,
2013-03-08 11:23:00,46.4,35.7,30.37,East,83,7.1,9.0,66,0.00,CLR,,0.00,WeatherDisplay:10.37,2013-03-08 16:23:00,
2013-03-08 11:24:00,46.5,35.0,30.37,ENE,71,9.0,12.7,64,0.00,CLR,,0.00,WeatherDisplay:10.37,2013-03-08 16:24:00,
2013-03-08 11:25:00,46.5,34.6,30.36,ENE,67,6.9,11.5,63,0.00,CLR,,0.00,WeatherDisplay:10.37,2013-03-08 16:25:00,
2013-03-08 11:26:00,46.6,34.7,30.36,ENE,76,6.7,9.2,63,0.00,CLR,,0.00,WeatherDisplay:10.37,2013-03-08 16:26:00,
2013-03-08 11:28:00,46.5,34.6,30.36,North,5,5.1,8.1,63,0.00,CLR,,0.00,WeatherDisplay:10.37,2013-03-08 16:28:00,
2013-03-08 11:29:00,46.4,33.7,30.36,NNE,29,3.1,8.1,61,0.00,CLR,,0.00,WeatherDisplay:10.37,2013-03-08 16:29:00,
2013-03-08 11:30:00,46.4,34.5,30.36,NE,44,2.6,5.8,63,0.00,CLR,,0.00,WeatherDisplay:10.37,2013-03-08 16:30:00,
2013-03-08 11:31:00,46.4,34.5,30.36,NE,46,3.9,7.0,63,0.00,CLR,,0.00,WeatherDisplay:10.37,2013-03-08 16:31:00,
2013-03-08 11:33:00,46.6,35.8,30.36,ENE,77,7.9,11.5,66,0.00,CLR,,0.00,WeatherDisplay:10.37,2013-03-08 16:33:00,
2013-03-08 11:34:00,46.7,35.2,30.36,East,86,9.2,11.5,64,0.00,CLR,,0.00,WeatherDisplay:10.37,2013-03-08 16:34:00,
2013-03-08 11:35:00,46.8,35.3,30.36,ENE,68,8.5,11.5,64,0.00,CLR,,0.00,WeatherDisplay:10.37,2013-03-08 16:35:00,
2013-03-08 11:36:00,46.9,35.0,30.36,East,82,5.7,12.7,63,0.00,CLR,,0.00,WeatherDisplay:10.37,2013-03-08 16:36:00,
2013-03-08 11:38:00,47.2,35.2,30.36,East,98,7.9,11.5,63,0.00,CLR,,0.00,WeatherDisplay:10.37,2013-03-08 16:38:00,
2013-03-08 11:39:00,47.4,35.4,30.36,East,89,3.9,5.8,63,0.00,CLR,,0.00,WeatherDisplay:10.37,2013-03-08 16:39:00,
2013-03-08 11:41:00,47.6,36.0,30.35,East,94,3.5,4.0,64,0.00,CLR,,0.00,WeatherDisplay:10.37,2013-03-08 16:41:00,
2013-03-08 11:44:00,47.9,34.7,30.36,NNE,13,5.2,7.0,60,0.00,CLR,,0.00,WeatherDisplay:10.37,2013-03-08 16:44:00,
2013-03-08 11:46:00,47.5,32.1,30.36,North,355,4.7,9.2,55,0.00,CLR,,0.00,WeatherDisplay:10.37,2013-03-08 16:46:00,
2013-03-08 11:49:00,47.2,34.4,30.36,NE,56,3.1,5.8,61,0.00,CLR,,0.00,WeatherDisplay:10.37,2013-03-08 16:49:00,
2013-03-08 11:51:00,47.5,36.3,30.36,ESE,116,4.5,5.8,65,0.00,CLR,,0.00,WeatherDisplay:10.37,2013-03-08 16:51:00,
2013-03-08 11:54:00,47.6,34.4,30.36,ENE,62,2.9,5.0,60,0.00,CLR,,0.00,WeatherDisplay:10.37,2013-03-08 16:54:00,
2013-03-08 11:55:00,47.6,34.8,30.36,ENE,76,5.0,8.1,61,0.00,CLR,,0.00,WeatherDisplay:10.37,2013-03-08 16:55:00,
2013-03-08 11:56:00,47.9,36.7,30.36,ENE,75,6.8,10.4,65,0.00,CLR,,0.00,WeatherDisplay:10.37,2013-03-08 16:56:00,
2013-03-08 11:57:00,47.9,36.7,30.36,ENE,74,7.1,10.4,65,0.00,CLR,,0.00,WeatherDisplay:10.37,2013-03-08 16:57:00,
2013-03-08 11:59:00,48.3,34.2,30.36,ENE,58,0.4,3.5,58,0.00,CLR,,0.00,WeatherDisplay:10.37,2013-03-08 16:59:00,
2013-03-08 12:00:00,48.3,34.2,30.36,ENE,58,0.1,2.3,58,0.00,CLR,,0.00,WeatherDisplay:10.37,2013-03-08 17:00:00,
2013-03-08 12:02:00,48.4,34.7,30.36,East,100,0.6,3.5,59,0.00,CLR,,0.00,WeatherDisplay:10.37,2013-03-08 17:02:00,
2013-03-08 12:04:00,48.8,37.2,30.36,East,93,10.5,12.7,64,0.00,CLR,,0.00,WeatherDisplay:10.37,2013-03-08 17:04:00,
2013-03-08 12:05:00,49.0,36.5,30.36,ENE,57,6.3,15.0,62,0.00,CLR,,0.00,WeatherDisplay:10.37,2013-03-08 17:05:00,
2013-03-08 12:07:00,49.3,36.4,30.36,ENE,59,4.9,9.2,61,0.00,CLR,,0.00,WeatherDisplay:10.37,2013-03-08 17:07:00,
2013-03-08 12:09:00,49.7,37.2,30.36,ENE,61,4.9,10.4,62,0.00,CLR,,0.00,WeatherDisplay:10.37,2013-03-08 17:09:00,
2013-03-08 12:10:00,49.8,36.0,30.36,ENE,59,6.5,9.2,59,0.00,CLR,,0.00,WeatherDisplay:10.37,2013-03-08 17:10:00,
2013-03-08 12:12:00,49.8,35.6,30.36,East,91,2.5,4.6,58,0.00,CLR,,0.00,WeatherDisplay:10.37,2013-03-08 17:12:00,
2013-03-08 12:14:00,50.0,34.9,30.36,NE,54,0.7,3.5,56,0.00,CLR,,0.00,WeatherDisplay:10.37,2013-03-08 17:14:00,
2013-03-08 12:15:00,50.0,34.9,30.36,NE,39,2.8,4.6,56,0.00,CLR,,0.00,WeatherDisplay:10.37,2013-03-08 17:15:00,
2013-03-08 12:17:00,49.9,34.4,30.36,ENE,68,1.3,4.0,55,0.00,CLR,,0.00,WeatherDisplay:10.37,2013-03-08 17:17:00,
2013-03-08 12:19:00,50.0,36.7,30.35,ENE,65,6.3,10.4,60,0.00,CLR,,0.00,WeatherDisplay:10.37,2013-03-08 17:19:00,
2013-03-08 12:20:00,50.2,36.4,30.36,NE,50,7.1,9.2,59,0.00,CLR,,0.00,WeatherDisplay:10.37,2013-03-08 17:20:00,
2013-03-08 12:22:00,50.2,35.1,30.36,NE,53,2.4,8.1,56,0.00,CLR,,0.00,WeatherDisplay:10.37,2013-03-08 17:22:00,
2013-03-08 12:24:00,50.3,35.2,30.35,NNE,19,4.2,6.9,56,0.00,CLR,,0.00,WeatherDisplay:10.37,2013-03-08 17:24:00,
2013-03-08 12:25:00,50.2,34.6,30.35,NNE,19,0.3,3.5,55,0.00,CLR,,0.00,WeatherDisplay:10.37,2013-03-08 17:25:00,
2013-03-08 12:27:00,50.2,36.4,30.35,ENE,68,0.5,2.3,59,0.00,CLR,,0.00,WeatherDisplay:10.37,2013-03-08 17:27:00,
2013-03-08 12:29:00,50.4,35.3,30.35,NNW,340,1.6,5.0,56,0.00,CLR,,0.00,WeatherDisplay:10.37,2013-03-08 17:29:00,
2013-03-08 12:30:00,50.2,35.1,30.35,NNE,26,1.5,5.8,56,0.00,CLR,,0.00,WeatherDisplay:10.37,2013-03-08 17:30:00,
2013-03-08 12:32:00,50.2,35.5,30.35,North,357,5.0,8.1,57,0.00,CLR,,0.00,WeatherDisplay:10.37,2013-03-08 17:32:00,
2013-03-08 12:34:00,49.9,35.3,30.35,NE,50,3.5,8.1,57,0.00,CLR,,0.00,WeatherDisplay:10.37,2013-03-08 17:34:00,
2013-03-08 12:36:00,49.9,37.0,30.35,ENE,73,4.2,7.0,61,0.00,CLR,,0.00,WeatherDisplay:10.37,2013-03-08 17:36:00,
2013-03-08 12:37:00,50.2,36.8,30.35,East,85,5.6,8.1,60,0.00,CLR,,0.00,WeatherDisplay:10.37,2013-03-08 17:37:00,
2013-03-08 12:39:00,50.7,37.3,30.36,East,83,2.6,4.6,60,0.00,CLR,,0.00,WeatherDisplay:10.37,2013-03-08 17:39:00,
2013-03-08 12:41:00,51.0,35.4,30.36,ENE,72,3.2,3.5,55,0.00,CLR,,0.00,WeatherDisplay:10.37,2013-03-08 17:41:00,
2013-03-08 12:42:00,51.2,36.5,30.36,ENE,77,0.9,4.6,57,0.00,CLR,,0.00,WeatherDisplay:10.37,2013-03-08 17:42:00,
2013-03-08 12:43:00,51.5,37.2,30.36,ENE,78,0.0,3.5,58,0.00,CLR,,0.00,WeatherDisplay:10.37,2013-03-08 17:43:00,
2013-03-08 12:44:00,51.6,36.4,30.36,ENE,68,1.4,2.3,56,0.00,CLR,,0.00,WeatherDisplay:10.37,2013-03-08 17:44:00,
2013-03-08 12:46:00,51.8,37.9,30.36,South,181,0.7,2.3,59,0.00,CLR,,0.00,WeatherDisplay:10.37,2013-03-08 17:46:00,
2013-03-08 12:47:00,51.9,35.3,30.36,WSW,242,0.7,3.5,53,0.00,CLR,,0.00,WeatherDisplay:10.37,2013-03-08 17:47:00,
2013-03-08 12:48:00,51.7,35.6,30.36,West,271,0.2,2.3,54,0.00,CLR,,0.00,WeatherDisplay:10.37,2013-03-08 17:48:00,
2013-03-08 12:49:00,51.6,35.9,30.35,ENE,66,0.3,3.0,55,0.00,CLR,,0.00,WeatherDisplay:10.37,2013-03-08 17:49:00,
2013-03-08 12:51:00,51.8,38.3,30.36,ENE,72,4.0,6.9,60,0.00,CLR,,0.00,WeatherDisplay:10.37,2013-03-08 17:51:00,
2013-03-08 12:52:00,52.0,36.8,30.35,East,99,2.2,3.5,56,0.00,CLR,,0.00,WeatherDisplay:10.37,2013-03-08 17:52:00,
2013-03-08 12:53:00,52.1,37.3,30.35,NNE,18,3.5,6.9,57,0.00,CLR,,0.00,WeatherDisplay:10.37,2013-03-08 17:53:00,
2013-03-08 12:55:00,52.2,36.0,30.35,North,3,3.9,10.4,54,0.00,CLR,,0.00,WeatherDisplay:10.37,2013-03-08 17:55:00,
2013-03-08 12:56:00,52.1,35.5,30.35,North,2,3.6,6.0,53,0.00,CLR,,0.00,WeatherDisplay:10.37,2013-03-08 17:56:00,
2013-03-08 12:57:00,51.9,35.3,30.35,North,357,3.3,6.9,53,0.00,CLR,,0.00,WeatherDisplay:10.37,2013-03-08 17:57:00,
2013-03-08 12:59:00,51.8,36.1,30.35,NE,54,2.3,4.6,55,0.00,CLR,,0.00,WeatherDisplay:10.37,2013-03-08 17:59:00,
2013-03-08 13:00:00,51.9,37.1,30.35,NNE,26,1.3,4.0,57,0.00,CLR,,0.00,WeatherDisplay:10.37,2013-03-08 18:00:00,
2013-03-08 13:01:00,51.8,34.7,30.35,NNW,342,3.6,4.6,52,0.00,CLR,,0.00,WeatherDisplay:10.37,2013-03-08 18:01:00,
2013-03-08 13:02:00,51.7,35.1,30.35,NNE,14,2.1,4.6,53,0.00,CLR,,0.00,WeatherDisplay:10.37,2013-03-08 18:02:00,
2013-03-08 13:04:00,51.7,35.6,30.35,North,359,0.6,5.0,54,0.00,CLR,,0.00,WeatherDisplay:10.37,2013-03-08 18:04:00,
2013-03-08 13:05:00,51.7,36.5,30.35,NNW,343,3.2,6.0,56,0.00,CLR,,0.00,WeatherDisplay:10.37,2013-03-08 18:05:00,
2013-03-08 13:06:00,51.2,34.2,30.35,NNW,347,5.0,8.1,52,0.00,CLR,,0.00,WeatherDisplay:10.37,2013-03-08 18:06:00,
2013-03-08 13:07:00,51.1,34.5,30.35,NW,325,1.7,6.9,53,0.00,CLR,,0.00,WeatherDisplay:10.37,2013-03-08 18:07:00,
2013-03-08 13:09:00,51.1,35.5,30.35,North,4,2.2,3.5,55,0.00,CLR,,0.00,WeatherDisplay:10.37,2013-03-08 18:09:00,
2013-03-08 13:10:00,51.1,35.0,30.35,North,359,2.2,4.0,54,0.00,CLR,,0.00,WeatherDisplay:10.37,2013-03-08 18:10:00,
2013-03-08 13:11:00,51.2,35.1,30.35,North,351,2.3,5.0,54,0.00,CLR,,0.00,WeatherDisplay:10.37,2013-03-08 18:11:00,
2013-03-08 13:12:00,51.1,34.5,30.35,North,352,5.1,5.1,53,0.00,CLR,,0.00,WeatherDisplay:10.37,2013-03-08 18:12:00,
2013-03-08 13:14:00,50.8,34.3,30.34,WNW,295,5.0,8.1,53,0.00,CLR,,0.00,WeatherDisplay:10.37,2013-03-08 18:14:00,
2013-03-08 13:15:00,50.4,33.9,30.34,NNW,346,5.3,8.0,53,0.00,CLR,,0.00,WeatherDisplay:10.37,2013-03-08 18:15:00,
2013-03-08 13:17:00,50.2,35.1,30.34,North,350,4.2,6.9,56,0.00,CLR,,0.00,WeatherDisplay:10.37,2013-03-08 18:17:00,
2013-03-08 13:19:00,50.0,33.5,30.34,NNW,335,2.9,6.9,53,0.00,CLR,,0.00,WeatherDisplay:10.37,2013-03-08 18:19:00,
2013-03-08 13:20:00,50.0,34.0,30.34,NNW,335,2.6,4.6,54,0.00,CLR,,0.00,WeatherDisplay:10.37,2013-03-08 18:20:00,
2013-03-08 13:22:00,50.0,34.0,30.34,NW,324,3.1,5.0,54,0.00,CLR,,0.00,WeatherDisplay:10.37,2013-03-08 18:22:00,
2013-03-08 13:24:00,49.8,34.7,30.34,NW,326,5.1,8.1,56,0.00,CLR,,0.00,WeatherDisplay:10.37,2013-03-08 18:24:00,
2013-03-08 13:25:00,49.7,33.2,30.34,NW,319,5.5,6.9,53,0.00,CLR,,0.00,WeatherDisplay:10.37,2013-03-08 18:25:00,
2013-03-08 13:27:00,49.6,34.1,30.34,WNW,297,5.1,8.1,55,0.00,CLR,,0.00,WeatherDisplay:10.37,2013-03-08 18:27:00,
2013-03-08 13:28:00,49.5,33.5,30.34,WNW,297,4.9,8.1,54,0.00,CLR,,0.00,WeatherDisplay:10.37,2013-03-08 18:28:00,
2013-03-08 13:29:00,49.5,34.0,30.34,WNW,295,4.1,4.6,55,0.00,CLR,,0.00,WeatherDisplay:10.37,2013-03-08 18:29:00,
2013-03-08 13:30:00,49.5,34.4,30.34,WNW,301,4.2,4.6,56,0.00,CLR,,0.00,WeatherDisplay:10.37,2013-03-08 18:30:00,
2013-03-08 13:32:00,49.7,34.2,30.34,NNW,338,4.2,5.8,55,0.00,CLR,,0.00,WeatherDisplay:10.37,2013-03-08 18:32:00,
2013-03-08 13:33:00,49.8,34.3,30.34,NNW,338,2.2,5.8,55,0.00,CLR,,0.00,WeatherDisplay:10.37,2013-03-08 18:33:00,
2013-03-08 13:34:00,50.0,34.9,30.34,NNW,337,0.0,2.3,56,0.00,CLR,,0.00,WeatherDisplay:10.37,2013-03-08 18:34:00,
2013-03-08 13:35:00,50.1,34.5,30.34,NNW,337,0.0,2.3,55,0.00,CLR,,0.00,WeatherDisplay:10.37,2013-03-08 18:35:00,
2013-03-08 13:37:00,50.6,35.5,30.34,NNW,337,0.5,3.0,56,0.00,CLR,,0.00,WeatherDisplay:10.37,2013-03-08 18:37:00,
2013-03-08 13:38:00,50.8,35.7,30.33,NW,307,2.2,3.5,56,0.00,CLR,,0.00,WeatherDisplay:10.37,2013-03-08 18:38:00,
2013-03-08 13:40:00,50.9,35.7,30.33,NNW,334,3.5,5.8,56,0.00,CLR,,0.00,WeatherDisplay:10.37,2013-03-08 18:40:00,
2013-03-08 13:42:00,50.8,34.7,30.33,NW,311,3.8,5.8,54,0.00,CLR,,0.00,WeatherDisplay:10.37,2013-03-08 18:42:00,
2013-03-08 13:43:00,50.8,34.7,30.33,NW,312,1.9,5.8,54,0.00,CLR,,0.00,WeatherDisplay:10.37,2013-03-08 18:43:00,
2013-03-08 13:45:00,50.9,35.3,30.33,NW,321,0.0,0.0,55,0.00,CLR,,0.00,WeatherDisplay:10.37,2013-03-08 18:45:00,
2013-03-08 13:46:00,51.2,36.9,30.34,North,351,0.0,0.0,58,0.00,CLR,,0.00,WeatherDisplay:10.37,2013-03-08 18:46:00,
2013-03-08 13:47:00,51.8,38.8,30.33,NE,49,1.2,5.0,61,0.00,CLR,,0.00,WeatherDisplay:10.37,2013-03-08 18:47:00,
2013-03-08 13:48:00,52.1,38.6,30.33,NNE,17,3.5,5.8,60,0.00,CLR,,0.00,WeatherDisplay:10.37,2013-03-08 18:48:00,
2013-03-08 13:50:00,52.6,38.7,30.34,ENE,75,4.4,8.1,59,0.00,CLR,,0.00,WeatherDisplay:10.37,2013-03-08 18:50:00,
2013-03-08 13:51:00,53.0,39.0,30.33,East,87,6.8,9.2,59,0.00,CLR,,0.00,WeatherDisplay:10.37,2013-03-08 18:51:00,
2013-03-08 13:53:00,53.7,38.8,30.33,ESE,102,4.0,5.0,57,0.00,CLR,,0.00,WeatherDisplay:10.37,2013-03-08 18:53:00,
2013-03-08 13:55:00,54.6,40.1,30.33,East,79,3.4,6.9,58,0.00,CLR,,0.00,WeatherDisplay:10.37,2013-03-08 18:55:00,
2013-03-08 13:56:00,54.9,39.9,30.33,East,84,5.5,6.0,57,0.00,CLR,,0.00,WeatherDisplay:10.37,2013-03-08 18:56:00,
2013-03-08 13:58:00,55.6,39.2,30.33,ENE,77,1.3,4.6,54,0.00,CLR,,0.00,WeatherDisplay:10.37,2013-03-08 18:58:00,
2013-03-08 14:00:00,56.0,38.6,30.33,ENE,68,4.6,5.8,52,0.00,CLR,,0.00,WeatherDisplay:10.37,2013-03-08 19:00:00,
2013-03-08 14:01:00,56.0,38.1,30.33,ENE,68,3.3,5.8,51,0.00,CLR,,0.00,WeatherDisplay:10.37,2013-03-08 19:01:00,
2013-03-08 14:03:00,56.0,39.1,30.33,East,91,3.4,5.8,53,0.00,CLR,,0.00,WeatherDisplay:10.37,2013-03-08 19:03:00,
2013-03-08 14:05:00,56.4,40.0,30.32,East,95,3.4,4.6,54,0.00,CLR,,0.00,WeatherDisplay:10.37,2013-03-08 19:05:00,
2013-03-08 14:06:00,56.5,39.6,30.32,ENE,59,0.8,4.6,53,0.00,CLR,,0.00,WeatherDisplay:10.37,2013-03-08 19:06:00,
2013-03-08 14:08:00,56.5,39.6,30.33,ENE,68,2.4,6.0,53,0.00,CLR,,0.00,WeatherDisplay:10.37,2013-03-08 19:08:00,
2013-03-08 14:11:00,56.8,39.8,30.33,SE,125,2.9,8.1,53,0.00,CLR,,0.00,WeatherDisplay:10.37,2013-03-08 19:11:00,
2013-03-08 14:13:00,57.1,40.6,30.33,East,81,1.9,4.0,54,0.00,CLR,,0.00,WeatherDisplay:10.37,2013-03-08 19:13:00,
2013-03-08 14:16:00,57.2,37.7,30.33,NE,52,1.2,4.6,48,0.00,CLR,,0.00,WeatherDisplay:10.37,2013-03-08 19:16:00,
2013-03-08 14:18:00,56.7,36.7,30.33,NNE,20,0.1,3.5,47,0.00,CLR,,0.00,WeatherDisplay:10.37,2013-03-08 19:18:00,
2013-03-08 14:21:00,56.5,39.6,30.33,SSW,198,0.9,4.6,53,0.00,CLR,,0.00,WeatherDisplay:10.37,2013-03-08 19:21:00,
2013-03-08 14:23:00,56.8,40.8,30.33,ENE,76,7.1,7.1,55,0.00,CLR,,0.00,WeatherDisplay:10.37,2013-03-08 19:23:00,
2013-03-08 14:26:00,57.5,40.0,30.33,East,81,5.6,7.0,52,0.00,CLR,,0.00,WeatherDisplay:10.37,2013-03-08 19:26:00,
2013-03-08 14:28:00,57.9,39.4,30.33,ESE,103,7.9,11.5,50,0.00,CLR,,0.00,WeatherDisplay:10.37,2013-03-08 19:28:00,
2013-03-08 14:29:00,58.0,40.0,30.33,ESE,108,7.4,11.5,51,0.00,CLR,,0.00,WeatherDisplay:10.37,2013-03-08 19:29:00,
2013-03-08 14:31:00,58.3,39.7,30.33,East,99,5.3,9.2,50,0.00,CLR,,0.00,WeatherDisplay:10.37,2013-03-08 19:31:00,
2013-03-08 14:32:00,58.3,39.7,30.33,ESE,113,5.0,9.2,50,0.00,CLR,,0.00,WeatherDisplay:10.37,2013-03-08 19:32:00,
2013-03-08 14:33:00,58.3,39.2,30.33,East,90,1.4,6.9,49,0.00,CLR,,0.00,WeatherDisplay:10.37,2013-03-08 19:33:00,
2013-03-08 14:34:00,58.3,40.2,30.33,ESE,109,4.5,6.9,51,0.00,CLR,,0.00,WeatherDisplay:10.37,2013-03-08 19:34:00,
2013-03-08 14:37:00,58.7,40.6,30.33,East,92,2.1,4.6,51,0.00,CLR,,0.00,WeatherDisplay:10.37,2013-03-08 19:37:00,
2013-03-08 14:38:00,58.9,39.8,30.33,NE,53,0.6,3.5,49,0.00,CLR,,0.00,WeatherDisplay:10.37,2013-03-08 19:38:00,
2013-03-08 14:39:00,59.0,39.3,30.33,NE,37,0.5,3.5,48,0.00,CLR,,0.00,WeatherDisplay:10.37,2013-03-08 19:39:00,
2013-03-08 14:42:00,58.8,40.2,30.33,East,84,1.0,4.0,50,0.00,CLR,,0.00,WeatherDisplay:10.37,2013-03-08 19:42:00,
2013-03-08 14:44:00,58.7,39.0,30.32,ENE,70,3.9,6.9,48,0.00,CLR,,0.00,WeatherDisplay:10.37,2013-03-08 19:44:00,
2013-03-08 14:47:00,58.8,39.1,30.32,East,84,0.1,2.3,48,0.00,CLR,,0.00,WeatherDisplay:10.37,2013-03-08 19:47:00,
2013-03-08 14:49:00,58.7,39.0,30.32,NE,49,0.9,1.1,48,0.00,CLR,,0.00,WeatherDisplay:10.37,2013-03-08 19:49:00,
2013-03-08 14:52:00,57.9,37.2,30.31,North,354,1.2,6.0,46,0.00,CLR,,0.00,WeatherDisplay:10.37,2013-03-08 19:52:00,
2013-03-08 14:54:00,57.3,38.3,30.31,NE,39,0.6,3.5,49,0.00,CLR,,0.00,WeatherDisplay:10.37,2013-03-08 19:54:00,
2013-03-08 14:55:00,57.3,39.8,30.31,East,82,1.2,4.0,52,0.00,CLR,,0.00,WeatherDisplay:10.37,2013-03-08 19:55:00,
2013-03-08 14:57:00,57.7,39.7,30.31,East,81,3.8,6.9,51,0.00,CLR,,0.00,WeatherDisplay:10.37,2013-03-08 19:57:00,
2013-03-08 14:59:00,58.2,40.6,30.31,East,95,2.5,4.6,52,0.00,CLR,,0.00,WeatherDisplay:10.37,2013-03-08 19:59:00,
2013-03-08 15:01:00,58.5,39.9,30.31,SE,142,0.1,1.1,50,0.00,CLR,,0.00,WeatherDisplay:10.37,2013-03-08 20:01:00,
2013-03-08 15:02:00,58.8,40.7,30.30,SE,139,0.3,1.1,51,0.00,CLR,,0.00,WeatherDisplay:10.37,2013-03-08 20:02:00,
2013-03-08 15:04:00,59.3,41.2,30.30,NE,55,5.6,7.0,51,0.00,CLR,,0.00,WeatherDisplay:10.37,2013-03-08 20:04:00,
2013-03-08 15:06:00,59.2,37.9,30.30,ENE,73,2.3,6.9,45,0.00,CLR,,0.00,WeatherDisplay:10.37,2013-03-08 20:06:00,
2013-03-08 15:07:00,59.1,38.9,30.30,East,83,1.7,3.5,47,0.00,CLR,,0.00,WeatherDisplay:10.37,2013-03-08 20:07:00,
2013-03-08 15:08:00,59.1,39.4,30.30,East,85,2.4,5.8,48,0.00,CLR,,0.00,WeatherDisplay:10.37,2013-03-08 20:08:00,
2013-03-08 15:10:00,59.2,40.0,30.30,East,91,6.7,11.5,49,0.00,CLR,,0.00,WeatherDisplay:10.37,2013-03-08 20:10:00,
2013-03-08 15:12:00,59.4,40.2,30.31,ENE,63,4.9,6.9,49,0.00,CLR,,0.00,WeatherDisplay:10.37,2013-03-08 20:12:00,
2013-03-08 15:13:00,59.4,39.7,30.30,ENE,69,2.5,6.9,48,0.00,CLR,,0.00,WeatherDisplay:10.37,2013-03-08 20:13:00,
2013-03-08 15:15:00,59.5,39.2,30.30,ENE,75,5.6,6.9,47,0.00,CLR,,0.00,WeatherDisplay:10.37,2013-03-08 20:15:00,
2013-03-08 15:17:00,59.7,40.5,30.31,ESE,118,3.1,8.0,49,0.00,CLR,,0.00,WeatherDisplay:10.37,2013-03-08 20:17:00,
2013-03-08 15:18:00,59.8,40.6,30.31,ESE,114,5.9,8.1,49,0.00,CLR,,0.00,WeatherDisplay:10.37,2013-03-08 20:18:00,
2013-03-08 15:20:00,60.0,40.2,30.31,ENE,73,2.1,6.9,48,0.00,CLR,,0.00,WeatherDisplay:10.37,2013-03-08 20:20:00,
2013-03-08 15:22:00,60.2,41.0,30.31,ESE,121,4.7,6.9,49,0.00,CLR,,0.00,WeatherDisplay:10.37,2013-03-08 20:22:00,
2013-03-08 15:23:00,60.3,40.0,30.31,ENE,66,3.6,5.8,47,0.00,CLR,,0.00,WeatherDisplay:10.37,2013-03-08 20:23:00,
2013-03-08 15:25:00,60.2,39.3,30.30,ENE,60,0.4,4.6,46,0.00,CLR,,0.00,WeatherDisplay:10.37,2013-03-08 20:25:00,
2013-03-08 15:27:00,60.0,39.7,30.30,East,83,1.1,3.0,47,0.00,CLR,,0.00,WeatherDisplay:10.37,2013-03-08 20:27:00,
2013-03-08 15:28:00,60.1,40.3,30.30,SE,131,3.1,4.6,48,0.00,CLR,,0.00,WeatherDisplay:10.37,2013-03-08 20:28:00,
2013-03-08 15:29:00,60.1,40.3,30.30,East,96,2.3,4.6,48,0.00,CLR,,0.00,WeatherDisplay:10.37,2013-03-08 20:29:00,
2013-03-08 15:30:00,60.2,39.9,30.30,East,93,4.0,7.0,47,0.00,CLR,,0.00,WeatherDisplay:10.37,2013-03-08 20:30:00,
2013-03-08 15:32:00,60.4,40.1,30.30,ENE,73,2.3,4.6,47,0.00,CLR,,0.00,WeatherDisplay:10.37,2013-03-08 20:32:00,
2013-03-08 15:33:00,60.6,40.8,30.30,ENE,70,3.6,4.0,48,0.00,CLR,,0.00,WeatherDisplay:10.37,2013-03-08 20:33:00,
2013-03-08 15:34:00,60.7,40.9,30.30,East,89,2.1,8.1,48,0.00,CLR,,0.00,WeatherDisplay:10.37,2013-03-08 20:34:00,
2013-03-08 15:35:00,60.8,40.4,30.30,East,81,4.9,5.8,47,0.00,CLR,,0.00,WeatherDisplay:10.37,2013-03-08 20:35:00,
2013-03-08 15:38:00,60.9,39.4,30.30,ENE,68,4.0,10.4,45,0.00,CLR,,0.00,WeatherDisplay:10.37,2013-03-08 20:38:00,
2013-03-08 15:39:00,60.8,39.3,30.29,East,99,5.9,6.9,45,0.00,CLR,,0.00,WeatherDisplay:10.37,2013-03-08 20:39:00,
2013-03-08 15:40:00,60.9,40.0,30.29,East,98,4.4,8.1,46,0.00,CLR,,0.00,WeatherDisplay:10.37,2013-03-08 20:40:00,
2013-03-08 15:43:00,61.0,40.1,30.29,NE,53,7.0,8.1,46,0.00,CLR,,0.00,WeatherDisplay:10.37,2013-03-08 20:43:00,
2013-03-08 15:44:00,61.0,38.9,30.29,East,79,8.4,10.4,44,0.00,CLR,,0.00,WeatherDisplay:10.37,2013-03-08 20:44:00,
2013-03-08 15:45:00,60.9,38.8,30.29,East,79,6.1,9.2,44,0.00,CLR,,0.00,WeatherDisplay:10.37,2013-03-08 20:45:00,
2013-03-08 15:48:00,60.8,38.7,30.29,ENE,75,5.1,9.2,44,0.00,CLR,,0.00,WeatherDisplay:10.37,2013-03-08 20:48:00,
2013-03-08 15:49:00,60.7,39.2,30.29,NE,37,0.7,6.9,45,0.00,CLR,,0.00,WeatherDisplay:10.37,2013-03-08 20:49:00,
2013-03-08 15:50:00,60.6,39.7,30.29,ENE,58,1.9,3.5,46,0.00,CLR,,0.00,WeatherDisplay:10.37,2013-03-08 20:50:00,
2013-03-08 15:53:00,60.7,39.8,30.28,East,81,3.3,5.8,46,0.00,CLR,,0.00,WeatherDisplay:10.37,2013-03-08 20:53:00,
2013-03-08 15:54:00,60.8,39.9,30.28,ENE,78,1.4,4.6,46,0.00,CLR,,0.00,WeatherDisplay:10.37,2013-03-08 20:54:00,
2013-03-08 15:56:00,60.7,39.2,30.28,ENE,57,3.4,4.6,45,0.00,CLR,,0.00,WeatherDisplay:10.37,2013-03-08 20:56:00,
2013-03-08 15:59:00,60.4,38.9,30.28,NE,55,2.4,4.6,45,0.00,CLR,,0.00,WeatherDisplay:10.37,2013-03-08 20:59:00,
2013-03-08 16:01:00,60.3,40.0,30.28,NE,46,0.3,2.3,47,0.00,CLR,,0.00,WeatherDisplay:10.37,2013-03-08 21:01:00,
2013-03-08 16:04:00,60.6,41.3,30.28,ESE,109,2.2,3.5,49,0.00,CLR,,0.00,WeatherDisplay:10.37,2013-03-08 21:04:00,
2013-03-08 16:06:00,60.9,40.5,30.29,East,91,3.2,7.0,47,0.00,CLR,,0.00,WeatherDisplay:10.37,2013-03-08 21:06:00,
2013-03-08 16:09:00,61.2,40.2,30.29,East,80,2.5,4.6,46,0.00,CLR,,0.00,WeatherDisplay:10.37,2013-03-08 21:09:00,
2013-03-08 16:11:00,61.3,39.8,30.29,East,97,7.0,8.1,45,0.00,CLR,,0.00,WeatherDisplay:10.37,2013-03-08 21:11:00,
2013-03-08 16:14:00,61.3,38.6,30.29,North,358,4.0,8.1,43,0.00,CLR,,0.00,WeatherDisplay:10.37,2013-03-08 21:14:00,
2013-03-08 16:15:00,61.2,38.5,30.29,NE,35,3.4,5.8,43,0.00,CLR,,0.00,WeatherDisplay:10.37,2013-03-08 21:15:00,
2013-03-08 16:16:00,60.9,38.2,30.29,NNE,29,1.5,3.5,43,0.00,CLR,,0.00,WeatherDisplay:10.37,2013-03-08 21:16:00,
2013-03-08 16:19:00,60.6,39.1,30.29,ENE,68,0.9,3.5,45,0.00,CLR,,0.00,WeatherDisplay:10.37,2013-03-08 21:19:00,
2013-03-08 16:20:00,60.5,39.6,30.29,NE,50,0.3,3.5,46,0.00,CLR,,0.00,WeatherDisplay:10.37,2013-03-08 21:20:00,
2013-03-08 16:21:00,60.4,38.4,30.29,North,358,1.0,3.5,44,0.00,CLR,,0.00,WeatherDisplay:10.37,2013-03-08 21:21:00,
2013-03-08 16:24:00,60.1,38.7,30.29,North,359,0.0,0.0,45,0.00,CLR,,0.00,WeatherDisplay:10.37,2013-03-08 21:24:00,
2013-03-08 16:25:00,60.1,39.2,30.29,NNE,16,0.0,0.0,46,0.00,CLR,,0.00,WeatherDisplay:10.37,2013-03-08 21:25:00,
2013-03-08 16:26:00,60.2,39.3,30.29,NE,40,0.2,3.0,46,0.00,CLR,,0.00,WeatherDisplay:10.37,2013-03-08 21:26:00,
2013-03-08 16:29:00,60.1,38.7,30.29,NE,48,0.0,1.1,45,0.00,CLR,,0.00,WeatherDisplay:10.37,2013-03-08 21:29:00,
2013-03-08 16:30:00,60.0,39.1,30.28,NE,48,0.0,0.0,46,0.00,CLR,,0.00,WeatherDisplay:10.37,2013-03-08 21:30:00,
2013-03-08 16:31:00,60.1,39.8,30.28,NE,47,1.5,3.0,47,0.00,CLR,,0.00,WeatherDisplay:10.37,2013-03-08 21:31:00,
2013-03-08 16:34:00,60.2,39.3,30.28,ENE,75,2.6,3.5,46,0.00,CLR,,0.00,WeatherDisplay:10.37,2013-03-08 21:34:00,
2013-03-08 16:35:00,60.2,39.3,30.28,ENE,66,2.4,6.0,46,0.00,CLR,,0.00,WeatherDisplay:10.37,2013-03-08 21:35:00,
2013-03-08 16:36:00,60.3,40.0,30.28,East,85,4.4,9.0,47,0.00,CLR,,0.00,WeatherDisplay:10.37,2013-03-08 21:36:00,
2013-03-08 16:39:00,60.5,38.5,30.28,East,85,4.8,10.4,44,0.00,CLR,,0.00,WeatherDisplay:10.37,2013-03-08 21:39:00,
2013-03-08 16:40:00,60.5,39.0,30.28,East,93,4.0,6.9,45,0.00,CLR,,0.00,WeatherDisplay:10.37,2013-03-08 21:40:00,
2013-03-08 16:41:00,60.5,38.5,30.28,East,87,5.9,9.2,44,0.00,CLR,,0.00,WeatherDisplay:10.37,2013-03-08 21:41:00,
2013-03-08 16:44:00,60.6,38.6,30.28,East,83,2.3,4.6,44,0.00,CLR,,0.00,WeatherDisplay:10.37,2013-03-08 21:44:00,
2013-03-08 16:45:00,60.5,38.5,30.28,ENE,74,2.7,4.6,44,0.00,CLR,,0.00,WeatherDisplay:10.37,2013-03-08 21:45:00,
2013-03-08 16:46:00,60.5,38.5,30.28,East,92,4.6,4.6,44,0.00,CLR,,0.00,WeatherDisplay:10.37,2013-03-08 21:46:00,
2013-03-08 16:49:00,60.4,37.8,30.28,ENE,60,3.4,5.8,43,0.00,CLR,,0.00,WeatherDisplay:10.37,2013-03-08 21:49:00,
2013-03-08 16:50:00,60.3,37.7,30.28,ENE,60,1.7,5.8,43,0.00,CLR,,0.00,WeatherDisplay:10.37,2013-03-08 21:50:00,
2013-03-08 16:51:00,60.1,37.5,30.28,ENE,59,0.1,3.5,43,0.00,CLR,,0.00,WeatherDisplay:10.37,2013-03-08 21:51:00,
2013-03-08 16:52:00,60.1,38.1,30.28,ENE,59,0.1,1.1,44,0.00,CLR,,0.00,WeatherDisplay:10.37,2013-03-08 21:52:00,
2013-03-08 16:54:00,59.8,39.0,30.28,NNE,22,1.1,3.5,46,0.00,CLR,,0.00,WeatherDisplay:10.37,2013-03-08 21:54:00,
2013-03-08 16:55:00,59.8,38.4,30.28,NNE,22,1.1,3.5,45,0.00,CLR,,0.00,WeatherDisplay:10.37,2013-03-08 21:55:00,
2013-03-08 16:56:00,59.8,38.4,30.28,NE,35,0.6,3.5,45,0.00,CLR,,0.00,WeatherDisplay:10.37,2013-03-08 21:56:00,
2013-03-08 16:57:00,59.8,38.4,30.28,NE,38,2.8,8.0,45,0.00,CLR,,0.00,WeatherDisplay:10.37,2013-03-08 21:57:00,
2013-03-08 17:00:00,59.7,38.9,30.28,East,84,4.2,6.9,46,0.00,CLR,,0.00,WeatherDisplay:10.37,2013-03-08 22:00:00,
2013-03-08 17:01:00,59.8,39.0,30.28,East,82,1.2,4.6,46,0.00,CLR,,0.00,WeatherDisplay:10.37,2013-03-08 22:01:00,
2013-03-08 17:02:00,59.8,39.0,30.28,East,83,2.1,3.5,46,0.00,CLR,,0.00,WeatherDisplay:10.37,2013-03-08 22:02:00,
2013-03-08 17:05:00,59.9,39.1,30.27,ENE,67,0.3,2.3,46,0.00,CLR,,0.00,WeatherDisplay:10.37,2013-03-08 22:05:00,
2013-03-08 17:06:00,59.8,37.8,30.27,ENE,67,0.7,2.3,44,0.00,CLR,,0.00,WeatherDisplay:10.37,2013-03-08 22:06:00,
2013-03-08 17:07:00,59.8,38.4,30.27,ENE,67,0.2,2.3,45,0.00,CLR,,0.00,WeatherDisplay:10.37,2013-03-08 22:07:00,
2013-03-08 17:10:00,60.1,39.2,30.27,East,89,3.7,4.0,46,0.00,CLR,,0.00,WeatherDisplay:10.37,2013-03-08 22:10:00,
2013-03-08 17:11:00,60.1,38.7,30.27,East,90,1.8,4.6,45,0.00,CLR,,0.00,WeatherDisplay:10.37,2013-03-08 22:11:00,
2013-03-08 17:12:00,60.1,38.7,30.27,ENE,74,1.4,3.5,45,0.00,CLR,,0.00,WeatherDisplay:10.37,2013-03-08 22:12:00,
2013-03-08 17:15:00,59.9,39.1,30.27,East,86,0.3,3.5,46,0.00,CLR,,0.00,WeatherDisplay:10.37,2013-03-08 22:15:00,
2013-03-08 17:16:00,60.0,39.7,30.27,ESE,116,2.3,5.0,47,0.00,CLR,,0.00,WeatherDisplay:10.37,2013-03-08 22:16:00,
2013-03-08 17:17:00,60.0,39.7,30.27,ESE,115,2.8,4.6,47,0.00,CLR,,0.00,WeatherDisplay:10.37,2013-03-08 22:17:00,
2013-03-08 17:20:00,60.2,39.3,30.27,SE,128,6.2,8.1,46,0.00,CLR,,0.00,WeatherDisplay:10.37,2013-03-08 22:20:00,
2013-03-08 17:22:00,60.2,39.3,30.28,East,83,2.4,4.0,46,0.00,CLR,,0.00,WeatherDisplay:10.37,2013-03-08 22:22:00,
2013-03-08 17:25:00,60.2,38.8,30.28,NE,55,4.7,8.1,45,0.00,CLR,,0.00,WeatherDisplay:10.37,2013-03-08 22:25:00,
2013-03-08 17:27:00,60.2,39.3,30.28,ESE,122,6.3,10.4,46,0.00,CLR,,0.00,WeatherDisplay:10.37,2013-03-08 22:27:00,
2013-03-08 17:31:00,59.9,37.9,30.28,ENE,66,4.4,5.8,44,0.00,CLR,,0.00,WeatherDisplay:10.37,2013-03-08 22:31:00,
2013-03-08 17:32:00,59.8,38.4,30.28,ENE,68,4.0,5.8,45,0.00,CLR,,0.00,WeatherDisplay:10.37,2013-03-08 22:32:00,
2013-03-08 17:36:00,59.4,38.6,30.28,ENE,68,0.7,3.5,46,0.00,CLR,,0.00,WeatherDisplay:10.37,2013-03-08 22:36:00,
2013-03-08 17:37:00,59.4,39.7,30.28,ENE,68,0.0,0.0,48,0.00,CLR,,0.00,WeatherDisplay:10.37,2013-03-08 22:37:00,
2013-03-08 17:38:00,59.6,40.4,30.28,East,83,0.4,2.3,49,0.00,CLR,,0.00,WeatherDisplay:10.37,2013-03-08 22:38:00,
2013-03-08 17:41:00,59.9,39.6,30.28,ESE,122,3.4,4.6,47,0.00,CLR,,0.00,WeatherDisplay:10.37,2013-03-08 22:41:00,
2013-03-08 17:42:00,60.0,39.1,30.28,ESE,122,3.6,5.8,46,0.00,CLR,,0.00,WeatherDisplay:10.37,2013-03-08 22:42:00,
2013-03-08 17:43:00,60.0,39.1,30.28,ESE,116,1.8,3.5,46,0.00,CLR,,0.00,WeatherDisplay:10.37,2013-03-08 22:43:00,
2013-03-08 17:46:00,59.9,39.6,30.28,ESE,116,0.0,0.0,47,0.00,CLR,,0.00,WeatherDisplay:10.37,2013-03-08 22:46:00,
2013-03-08 17:47:00,60.0,39.1,30.28,ESE,116,0.1,1.1,46,0.00,CLR,,0.00,WeatherDisplay:10.37,2013-03-08 22:47:00,
2013-03-08 17:49:00,60.0,39.7,30.28,ESE,110,1.4,3.5,47,0.00,CLR,,0.00,WeatherDisplay:10.37,2013-03-08 22:49:00,
2013-03-08 17:51:00,60.1,39.2,30.28,ESE,115,0.7,3.0,46,0.00,CLR,,0.00,WeatherDisplay:10.37,2013-03-08 22:51:00,
2013-03-08 17:52:00,60.1,39.2,30.28,SE,132,3.1,4.6,46,0.00,CLR,,0.00,WeatherDisplay:10.37,2013-03-08 22:52:00,
2013-03-08 17:55:00,60.0,39.1,30.28,ESE,118,0.0,3.5,46,0.00,CLR,,0.00,WeatherDisplay:10.37,2013-03-08 22:55:00,
2013-03-08 17:56:00,59.9,39.6,30.28,ESE,118,0.4,2.0,47,0.00,CLR,,0.00,WeatherDisplay:10.37,2013-03-08 22:56:00,
2013-03-08 17:57:00,59.7,39.4,30.28,ESE,102,1.2,4.0,47,0.00,CLR,,0.00,WeatherDisplay:10.37,2013-03-08 22:57:00,
2013-03-08 18:00:00,59.5,39.2,30.28,ESE,106,0.0,0.0,47,0.00,CLR,,0.00,WeatherDisplay:10.37,2013-03-08 23:00:00,
2013-03-08 18:01:00,59.4,38.6,30.28,ESE,106,1.3,3.5,46,0.00,CLR,,0.00,WeatherDisplay:10.37,2013-03-08 23:01:00,
2013-03-08 18:03:00,59.2,38.4,30.28,ESE,106,0.0,0.0,46,0.00,CLR,,0.00,WeatherDisplay:10.37,2013-03-08 23:03:00,
2013-03-08 18:05:00,59.0,38.8,30.28,ESE,110,1.7,3.5,47,0.00,CLR,,0.00,WeatherDisplay:10.37,2013-03-08 23:05:00,
2013-03-08 18:07:00,58.8,39.1,30.28,ESE,110,1.3,3.5,48,0.00,CLR,,0.00,WeatherDisplay:10.37,2013-03-08 23:07:00,
2013-03-08 18:08:00,58.6,38.4,30.28,ESE,111,2.1,3.5,47,0.00,CLR,,0.00,WeatherDisplay:10.37,2013-03-08 23:08:00,
2013-03-08 18:09:00,58.5,38.3,30.28,ESE,111,0.4,3.5,47,0.00,CLR,,0.00,WeatherDisplay:10.37,2013-03-08 23:09:00,
2013-03-08 18:10:00,58.3,38.1,30.28,ESE,111,0.0,1.1,47,0.00,CLR,,0.00,WeatherDisplay:10.37,2013-03-08 23:10:00,
2013-03-08 18:12:00,58.1,38.5,30.28,ESE,111,0.0,0.0,48,0.00,CLR,,0.00,WeatherDisplay:10.37,2013-03-08 23:12:00,
2013-03-08 18:13:00,57.8,38.8,30.28,ESE,112,0.1,0.0,49,0.00,CLR,,0.00,WeatherDisplay:10.37,2013-03-08 23:13:00,
2013-03-08 18:14:00,57.7,38.7,30.28,ESE,112,0.1,1.1,49,0.00,CLR,,0.00,WeatherDisplay:10.37,2013-03-08 23:14:00,
2013-03-08 18:15:00,57.6,38.6,30.28,ESE,111,0.1,0.0,49,0.00,CLR,,0.00,WeatherDisplay:10.37,2013-03-08 23:15:00,
2013-03-08 18:17:00,57.3,38.8,30.29,ESE,112,0.0,0.0,50,0.00,CLR,,0.00,WeatherDisplay:10.37,2013-03-08 23:17:00,
2013-03-08 18:18:00,57.0,38.0,30.29,ESE,112,0.0,0.0,49,0.00,CLR,,0.00,WeatherDisplay:10.37,2013-03-08 23:18:00,
2013-03-08 18:19:00,56.7,38.3,30.29,ESE,112,0.0,0.0,50,0.00,CLR,,0.00,WeatherDisplay:10.37,2013-03-08 23:19:00,
2013-03-08 18:20:00,56.6,38.7,30.28,ESE,111,0.0,1.1,51,0.00,CLR,,0.00,WeatherDisplay:10.37,2013-03-08 23:20:00,
2013-03-08 18:22:00,56.3,39.4,30.29,ESE,111,0.0,0.0,53,0.00,CLR,,0.00,WeatherDisplay:10.37,2013-03-08 23:22:00,
2013-03-08 18:23:00,56.1,38.7,30.28,ESE,112,0.0,1.1,52,0.00,CLR,,0.00,WeatherDisplay:10.37,2013-03-08 23:23:00,
2013-03-08 18:24:00,55.8,38.4,30.28,ESE,112,0.0,0.0,52,0.00,CLR,,0.00,WeatherDisplay:10.37,2013-03-08 23:24:00,
2013-03-08 18:25:00,55.5,38.1,30.29,ESE,111,0.0,0.0,52,0.00,CLR,,0.00,WeatherDisplay:10.37,2013-03-08 23:25:00,
2013-03-08 18:27:00,55.3,38.0,30.29,ESE,112,0.0,0.0,52,0.00,CLR,,0.00,WeatherDisplay:10.37,2013-03-08 23:27:00,
2013-03-08 18:28:00,55.0,38.2,30.29,ESE,112,0.0,0.0,53,0.00,CLR,,0.00,WeatherDisplay:10.37,2013-03-08 23:28:00,
2013-03-08 18:29:00,54.7,37.9,30.28,ESE,112,0.0,0.0,53,0.00,CLR,,0.00,WeatherDisplay:10.37,2013-03-08 23:29:00,
2013-03-08 18:30:00,54.4,37.1,30.29,ESE,112,0.0,0.0,52,0.00,CLR,,0.00,WeatherDisplay:10.37,2013-03-08 23:30:00,
2013-03-08 18:32:00,54.2,37.4,30.28,ESE,112,0.0,0.0,53,0.00,CLR,,0.00,WeatherDisplay:10.37,2013-03-08 23:32:00,
2013-03-08 18:33:00,54.0,37.7,30.29,ESE,112,0.0,0.0,54,0.00,CLR,,0.00,WeatherDisplay:10.37,2013-03-08 23:33:00,
2013-03-08 18:34:00,53.8,37.1,30.29,ESE,111,0.0,0.0,53,0.00,CLR,,0.00,WeatherDisplay:10.37,2013-03-08 23:34:00,
2013-03-08 18:35:00,53.6,37.3,30.29,ESE,112,0.0,0.0,54,0.00,CLR,,0.00,WeatherDisplay:10.37,2013-03-08 23:35:00,
2013-03-08 18:37:00,53.4,37.2,30.29,ESE,112,0.0,0.0,54,0.00,CLR,,0.00,WeatherDisplay:10.37,2013-03-08 23:37:00,
2013-03-08 18:38:00,53.2,37.4,30.29,ESE,112,0.0,0.0,55,0.00,CLR,,0.00,WeatherDisplay:10.37,2013-03-08 23:38:00,
2013-03-08 18:39:00,53.1,37.3,30.29,ESE,112,0.0,0.0,55,0.00,CLR,,0.00,WeatherDisplay:10.37,2013-03-08 23:39:00,
2013-03-08 18:40:00,52.9,37.2,30.29,ESE,112,0.0,0.0,55,0.00,CLR,,0.00,WeatherDisplay:10.37,2013-03-08 23:40:00,
2013-03-08 18:42:00,52.7,37.4,30.29,ESE,112,0.0,0.0,56,0.00,CLR,,0.00,WeatherDisplay:10.37,2013-03-08 23:42:00,
2013-03-08 18:43:00,52.5,37.2,30.29,ESE,112,0.0,0.0,56,0.00,CLR,,0.00,WeatherDisplay:10.37,2013-03-08 23:43:00,
2013-03-08 18:44:00,52.4,37.6,30.29,ESE,112,0.0,0.0,57,0.00,CLR,,0.00,WeatherDisplay:10.37,2013-03-08 23:44:00,
2013-03-08 18:45:00,52.2,37.4,30.29,ESE,112,0.0,0.0,57,0.00,CLR,,0.00,WeatherDisplay:10.37,2013-03-08 23:45:00,
2013-03-08 18:47:00,51.8,37.0,30.29,ESE,111,0.0,0.0,57,0.00,CLR,,0.00,WeatherDisplay:10.37,2013-03-08 23:47:00,
2013-03-08 18:48:00,51.6,37.3,30.29,ESE,112,0.0,0.0,58,0.00,CLR,,0.00,WeatherDisplay:10.37,2013-03-08 23:48:00,
2013-03-08 18:49:00,51.3,37.0,30.30,ESE,112,0.0,0.0,58,0.00,CLR,,0.00,WeatherDisplay:10.37,2013-03-08 23:49:00,
2013-03-08 18:51:00,51.0,36.7,30.30,ESE,112,0.0,0.0,58,0.00,CLR,,0.00,WeatherDisplay:10.37,2013-03-08 23:51:00,
2013-03-08 18:52:00,50.5,36.7,30.30,ESE,112,0.0,0.0,59,0.00,CLR,,0.00,WeatherDisplay:10.37,2013-03-08 23:52:00,
2013-03-08 18:53:00,50.3,36.5,30.30,ESE,112,0.0,0.0,59,0.00,CLR,,0.00,WeatherDisplay:10.37,2013-03-08 23:53:00,
2013-03-08 18:55:00,50.1,36.7,30.30,ESE,112,0.0,0.0,60,0.00,CLR,,0.00,WeatherDisplay:10.37,2013-03-08 23:55:00,
2013-03-08 18:56:00,50.0,36.7,30.30,ESE,111,0.0,0.0,60,0.00,CLR,,0.00,WeatherDisplay:10.37,2013-03-08 23:56:00,
2013-03-08 18:57:00,50.2,37.3,30.30,ESE,112,0.0,0.0,61,0.00,CLR,,0.00,WeatherDisplay:10.37,2013-03-08 23:57:00,
2013-03-08 18:58:00,50.3,37.4,30.30,ESE,112,0.0,0.0,61,0.00,CLR,,0.00,WeatherDisplay:10.37,2013-03-08 23:58:00,
2013-03-08 19:00:00,50.5,38.0,30.30,ESE,112,0.0,0.0,62,0.00,CLR,,0.00,WeatherDisplay:10.37,2013-03-09 00:00:00,
2013-03-08 19:01:00,50.5,38.4,30.30,ESE,111,0.0,0.0,63,0.00,CLR,,0.00,WeatherDisplay:10.37,2013-03-09 00:01:00,
2013-03-08 19:02:00,50.6,38.5,30.30,ESE,111,0.0,0.0,63,0.00,CLR,,0.00,WeatherDisplay:10.37,2013-03-09 00:02:00,
2013-03-08 19:03:00,50.6,38.5,30.30,ESE,112,0.0,0.0,63,0.00,CLR,,0.00,WeatherDisplay:10.37,2013-03-09 00:03:00,
2013-03-08 19:05:00,50.4,38.3,30.30,ESE,111,0.0,0.0,63,0.00,CLR,,0.00,WeatherDisplay:10.37,2013-03-09 00:05:00,
2013-03-08 19:06:00,50.3,38.2,30.30,ESE,112,0.0,0.0,63,0.00,CLR,,0.00,WeatherDisplay:10.37,2013-03-09 00:06:00,
2013-03-08 19:07:00,50.2,37.7,30.30,ESE,111,0.0,0.0,62,0.00,CLR,,0.00,WeatherDisplay:10.37,2013-03-09 00:07:00,
2013-03-08 19:09:00,50.1,37.6,30.30,ESE,111,0.0,0.0,62,0.00,CLR,,0.00,WeatherDisplay:10.37,2013-03-09 00:09:00,
2013-03-08 19:10:00,49.9,37.0,30.30,ESE,112,0.0,0.0,61,0.00,CLR,,0.00,WeatherDisplay:10.37,2013-03-09 00:10:00,
2013-03-08 19:11:00,49.8,36.9,30.30,ESE,111,0.0,0.0,61,0.00,CLR,,0.00,WeatherDisplay:10.37,2013-03-09 00:11:00,
2013-03-08 19:13:00,49.8,36.9,30.30,ESE,112,0.0,0.0,61,0.00,CLR,,0.00,WeatherDisplay:10.37,2013-03-09 00:13:00,
2013-03-08 19:14:00,49.8,37.7,30.30,ESE,111,0.0,0.0,63,0.00,CLR,,0.00,WeatherDisplay:10.37,2013-03-09 00:14:00,
2013-03-08 19:15:00,49.8,37.7,30.30,ESE,112,0.0,0.0,63,0.00,CLR,,0.00,WeatherDisplay:10.37,2013-03-09 00:15:00,
2013-03-08 19:16:00,49.8,37.7,30.30,ESE,111,0.0,0.0,63,0.00,CLR,,0.00,WeatherDisplay:10.37,2013-03-09 00:16:00,
2013-03-08 19:18:00,49.8,37.7,30.30,ESE,112,0.0,0.0,63,0.00,CLR,,0.00,WeatherDisplay:10.37,2013-03-09 00:18:00,
2013-03-08 19:19:00,49.7,38.0,30.30,ESE,112,0.0,0.0,64,0.00,CLR,,0.00,WeatherDisplay:10.37,2013-03-09 00:19:00,
2013-03-08 19:20:00,49.2,37.9,30.31,ESE,112,0.0,0.0,65,0.00,CLR,,0.00,WeatherDisplay:10.37,2013-03-09 00:20:00,
2013-03-08 19:21:00,48.9,38.0,30.30,ESE,112,0.0,0.0,66,0.00,CLR,,0.00,WeatherDisplay:10.37,2013-03-09 00:21:00,
2013-03-08 19:23:00,48.6,38.1,30.30,ESE,112,0.0,0.0,67,0.00,CLR,,0.00,WeatherDisplay:10.37,2013-03-09 00:23:00,
2013-03-08 19:24:00,48.6,38.5,30.30,ESE,111,0.0,0.0,68,0.00,CLR,,0.00,WeatherDisplay:10.37,2013-03-09 00:24:00,
2013-03-08 19:25:00,48.8,38.7,30.30,ESE,111,0.0,0.0,68,0.00,CLR,,0.00,WeatherDisplay:10.37,2013-03-09 00:25:00,
2013-03-08 19:26:00,48.8,38.3,30.30,ESE,112,0.0,0.0,67,0.00,CLR,,0.00,WeatherDisplay:10.37,2013-03-09 00:26:00,
2013-03-08 19:28:00,48.9,38.4,30.30,ESE,111,0.0,0.0,67,0.00,CLR,,0.00,WeatherDisplay:10.37,2013-03-09 00:28:00,
2013-03-08 19:29:00,48.9,38.4,30.30,ESE,111,0.0,0.0,67,0.00,CLR,,0.00,WeatherDisplay:10.37,2013-03-09 00:29:00,
2013-03-08 19:30:00,48.7,37.8,30.30,ESE,111,0.0,0.0,66,0.00,CLR,,0.00,WeatherDisplay:10.37,2013-03-09 00:30:00,
2013-03-08 19:32:00,48.6,37.7,30.30,ESE,112,0.0,0.0,66,0.00,CLR,,0.00,WeatherDisplay:10.37,2013-03-09 00:32:00,
2013-03-08 19:33:00,48.5,38.0,30.30,ESE,111,0.0,0.0,67,0.00,CLR,,0.00,WeatherDisplay:10.37,2013-03-09 00:33:00,
2013-03-08 19:34:00,48.5,38.0,30.30,ESE,111,0.0,0.0,67,0.00,CLR,,0.00,WeatherDisplay:10.37,2013-03-09 00:34:00,
2013-03-08 19:35:00,48.5,38.0,30.30,ESE,111,0.0,0.0,67,0.00,CLR,,0.00,WeatherDisplay:10.37,2013-03-09 00:35:00,
2013-03-08 19:37:00,48.5,38.0,30.30,ESE,112,0.0,0.0,67,0.00,CLR,,0.00,WeatherDisplay:10.37,2013-03-09 00:37:00,
2013-03-08 19:38:00,48.4,37.9,30.30,ESE,111,0.0,0.0,67,0.00,CLR,,0.00,WeatherDisplay:10.37,2013-03-09 00:38:00,
2013-03-08 19:39:00,48.4,37.9,30.30,ESE,111,0.0,0.0,67,0.00,CLR,,0.00,WeatherDisplay:10.37,2013-03-09 00:39:00,
2013-03-08 19:41:00,48.2,37.8,30.30,ESE,112,0.0,0.0,67,0.00,CLR,,0.00,WeatherDisplay:10.37,2013-03-09 00:41:00,
2013-03-08 19:42:00,48.1,37.7,30.31,ESE,112,0.0,0.0,67,0.00,CLR,,0.00,WeatherDisplay:10.37,2013-03-09 00:42:00,
2013-03-08 19:44:00,47.7,37.7,30.31,ESE,111,0.0,0.0,68,0.00,CLR,,0.00,WeatherDisplay:10.37,2013-03-09 00:44:00,
2013-03-08 19:46:00,47.3,37.6,30.31,ESE,112,0.0,0.0,69,0.00,CLR,,0.00,WeatherDisplay:10.37,2013-03-09 00:46:00,
2013-03-08 19:47:00,47.2,37.9,30.31,ESE,112,0.0,0.0,70,0.00,CLR,,0.00,WeatherDisplay:10.37,2013-03-09 00:47:00,
2013-03-08 19:49:00,47.3,38.0,30.31,ESE,112,0.0,0.0,70,0.00,CLR,,0.00,WeatherDisplay:10.37,2013-03-09 00:49:00,
2013-03-08 19:51:00,47.3,37.6,30.31,ESE,112,0.0,0.0,69,0.00,CLR,,0.00,WeatherDisplay:10.37,2013-03-09 00:51:00,
2013-03-08 19:52:00,47.4,37.7,30.30,ESE,111,0.0,0.0,69,0.00,CLR,,0.00,WeatherDisplay:10.37,2013-03-09 00:52:00,
2013-03-08 19:54:00,47.3,37.6,30.31,ESE,112,0.0,0.0,69,0.00,CLR,,0.00,WeatherDisplay:10.37,2013-03-09 00:54:00,
2013-03-08 19:56:00,47.3,37.3,30.31,ESE,112,0.0,0.0,68,0.00,CLR,,0.00,WeatherDisplay:10.37,2013-03-09 00:56:00,
2013-03-08 19:57:00,47.1,37.1,30.30,ESE,111,0.0,0.0,68,0.00,CLR,,0.00,WeatherDisplay:10.37,2013-03-09 00:57:00,
2013-03-08 19:59:00,46.7,36.7,30.31,ESE,111,0.0,0.0,68,0.00,CLR,,0.00,WeatherDisplay:10.37,2013-03-09 00:59:00,
2013-03-08 20:00:00,46.6,36.6,30.31,ESE,112,0.0,0.0,68,0.00,CLR,,0.00,WeatherDisplay:10.37,2013-03-09 01:00:00,
2013-03-08 20:01:00,46.5,36.5,30.30,ESE,112,0.0,0.0,68,0.00,CLR,,0.00,WeatherDisplay:10.37,2013-03-09 01:01:00,
2013-03-08 20:02:00,46.4,36.8,30.30,ESE,111,0.0,0.0,69,0.00,CLR,,0.00,WeatherDisplay:10.37,2013-03-09 01:02:00,
2013-03-08 20:04:00,46.4,36.4,30.30,ESE,112,0.0,0.0,68,0.00,CLR,,0.00,WeatherDisplay:10.37,2013-03-09 01:04:00,
2013-03-08 20:05:00,46.5,36.5,30.30,ESE,112,0.0,0.0,68,0.00,CLR,,0.00,WeatherDisplay:10.37,2013-03-09 01:05:00,
2013-03-08 20:06:00,46.6,36.6,30.30,ESE,111,0.0,0.0,68,0.00,CLR,,0.00,WeatherDisplay:10.37,2013-03-09 01:06:00,
2013-03-08 20:07:00,46.7,36.7,30.30,ESE,111,0.0,0.0,68,0.00,CLR,,0.00,WeatherDisplay:10.37,2013-03-09 01:07:00,
2013-03-08 20:09:00,46.8,36.8,30.30,ESE,112,0.0,0.0,68,0.00,CLR,,0.00,WeatherDisplay:10.37,2013-03-09 01:09:00,
2013-03-08 20:10:00,46.8,36.8,30.30,ESE,111,0.0,0.0,68,0.00,CLR,,0.00,WeatherDisplay:10.37,2013-03-09 01:10:00,
2013-03-08 20:11:00,46.8,36.8,30.30,ESE,111,1.3,2.3,68,0.00,CLR,,0.00,WeatherDisplay:10.37,2013-03-09 01:11:00,
2013-03-08 20:12:00,46.8,36.8,30.30,ESE,112,0.0,2.3,68,0.00,CLR,,0.00,WeatherDisplay:10.37,2013-03-09 01:12:00,
2013-03-08 20:14:00,46.8,36.8,30.29,ESE,112,0.2,1.0,68,0.00,CLR,,0.00,WeatherDisplay:10.37,2013-03-09 01:14:00,
2013-03-08 20:15:00,46.8,36.8,30.29,ESE,111,0.2,1.1,68,0.00,CLR,,0.00,WeatherDisplay:10.37,2013-03-09 01:15:00,
2013-03-08 20:16:00,46.8,36.8,30.29,ESE,111,0.0,0.0,68,0.00,CLR,,0.00,WeatherDisplay:10.37,2013-03-09 01:16:00,
2013-03-08 20:17:00,46.7,36.7,30.29,ESE,112,1.8,3.5,68,0.00,CLR,,0.00,WeatherDisplay:10.37,2013-03-09 01:17:00,
2013-03-08 20:19:00,46.7,36.7,30.29,North,10,2.2,2.3,68,0.00,CLR,,0.00,WeatherDisplay:10.37,2013-03-09 01:19:00,
2013-03-08 20:20:00,46.6,36.6,30.29,North,9,2.3,3.5,68,0.00,CLR,,0.00,WeatherDisplay:10.37,2013-03-09 01:20:00,
2013-03-08 20:21:00,46.6,36.6,30.29,North,9,0.5,2.3,68,0.00,CLR,,0.00,WeatherDisplay:10.37,2013-03-09 01:21:00,
2013-03-08 20:22:00,46.6,37.0,30.29,North,9,0.0,0.0,69,0.00,CLR,,0.00,WeatherDisplay:10.37,2013-03-09 01:22:00,
2013-03-08 20:24:00,46.7,37.4,30.30,North,9,0.0,0.0,70,0.00,CLR,,0.00,WeatherDisplay:10.37,2013-03-09 01:24:00,
2013-03-08 20:25:00,46.7,37.4,30.30,North,9,0.0,0.0,70,0.00,CLR,,0.00,WeatherDisplay:10.37,2013-03-09 01:25:00,
2013-03-08 20:26:00,46.6,37.3,30.30,North,9,0.0,0.0,70,0.00,CLR,,0.00,WeatherDisplay:10.37,2013-03-09 01:26:00,
2013-03-08 20:27:00,46.6,37.3,30.29,North,9,0.0,0.0,70,0.00,CLR,,0.00,WeatherDisplay:10.37,2013-03-09 01:27:00,
2013-03-08 20:30:00,46.4,37.1,30.30,North,9,0.0,0.0,70,0.00,CLR,,0.00,WeatherDisplay:10.37,2013-03-09 01:30:00,
2013-03-08 20:31:00,46.1,36.5,30.30,North,9,0.0,0.0,69,0.00,CLR,,0.00,WeatherDisplay:10.37,2013-03-09 01:31:00,
2013-03-08 20:33:00,45.6,36.4,30.30,North,9,0.0,0.0,70,0.00,CLR,,0.00,WeatherDisplay:10.37,2013-03-09 01:33:00,
2013-03-08 20:35:00,45.5,36.3,30.30,North,9,0.0,0.0,70,0.00,CLR,,0.00,WeatherDisplay:10.37,2013-03-09 01:35:00,
2013-03-08 20:36:00,45.4,36.2,30.30,North,9,0.0,0.0,70,0.00,CLR,,0.00,WeatherDisplay:10.37,2013-03-09 01:36:00,
2013-03-08 20:38:00,45.3,36.1,30.30,North,9,0.0,0.0,70,0.00,CLR,,0.00,WeatherDisplay:10.37,2013-03-09 01:38:00,
2013-03-08 20:40:00,45.2,36.0,30.30,North,9,0.0,0.0,70,0.00,CLR,,0.00,WeatherDisplay:10.37,2013-03-09 01:40:00,
2013-03-08 20:41:00,45.1,35.9,30.30,North,9,0.9,2.3,70,0.00,CLR,,0.00,WeatherDisplay:10.37,2013-03-09 01:41:00,
2013-03-08 20:43:00,45.0,35.8,30.30,North,9,1.2,3.5,70,0.00,CLR,,0.00,WeatherDisplay:10.37,2013-03-09 01:43:00,
2013-03-08 20:45:00,45.0,35.8,30.30,North,9,0.1,1.0,70,0.00,CLR,,0.00,WeatherDisplay:10.37,2013-03-09 01:45:00,
2013-03-08 20:46:00,45.0,35.8,30.30,North,9,0.1,1.1,70,0.00,CLR,,0.00,WeatherDisplay:10.37,2013-03-09 01:46:00,
2013-03-08 20:48:00,45.1,35.9,30.30,North,9,0.0,0.0,70,0.00,CLR,,0.00,WeatherDisplay:10.37,2013-03-09 01:48:00,
2013-03-08 20:50:00,45.3,36.4,30.30,North,9,0.0,0.0,71,0.00,CLR,,0.00,WeatherDisplay:10.37,2013-03-09 01:50:00,
2013-03-08 20:51:00,45.3,36.4,30.30,North,9,0.0,0.0,71,0.00,CLR,,0.00,WeatherDisplay:10.37,2013-03-09 01:51:00,
2013-03-08 20:53:00,45.3,36.4,30.30,North,9,0.0,0.0,71,0.00,CLR,,0.00,WeatherDisplay:10.37,2013-03-09 01:53:00,
2013-03-08 20:55:00,45.3,36.1,30.30,North,9,0.0,0.0,70,0.00,CLR,,0.00,WeatherDisplay:10.37,2013-03-09 01:55:00,
2013-03-08 20:56:00,45.2,36.0,30.30,North,9,0.0,0.0,70,0.00,CLR,,0.00,WeatherDisplay:10.37,2013-03-09 01:56:00,
2013-03-08 20:58:00,44.7,35.9,30.30,North,9,0.0,0.0,71,0.00,CLR,,0.00,WeatherDisplay:10.37,2013-03-09 01:58:00,
2013-03-08 21:00:00,44.3,35.8,30.30,North,9,0.0,0.0,72,0.00,CLR,,0.00,WeatherDisplay:10.37,2013-03-09 02:00:00,
2013-03-08 21:01:00,44.1,35.6,30.30,North,9,0.0,0.0,72,0.00,CLR,,0.00,WeatherDisplay:10.37,2013-03-09 02:01:00,
2013-03-08 21:03:00,44.0,35.6,30.30,North,9,0.0,0.0,72,0.00,CLR,,0.00,WeatherDisplay:10.37,2013-03-09 02:03:00,
2013-03-08 21:05:00,43.9,35.5,30.30,North,9,0.0,0.0,72,0.00,CLR,,0.00,WeatherDisplay:10.37,2013-03-09 02:05:00,
2013-03-08 21:06:00,43.8,35.4,30.30,North,9,0.0,0.0,72,0.00,CLR,,0.00,WeatherDisplay:10.37,2013-03-09 02:06:00,
2013-03-08 21:07:00,43.7,34.9,30.30,North,9,0.0,0.0,71,0.00,CLR,,0.00,WeatherDisplay:10.37,2013-03-09 02:07:00,
2013-03-08 21:08:00,43.6,35.2,30.30,North,9,0.0,0.0,72,0.00,CLR,,0.00,WeatherDisplay:10.37,2013-03-09 02:08:00,
2013-03-08 21:10:00,43.6,35.5,30.30,North,9,0.0,0.0,73,0.00,CLR,,0.00,WeatherDisplay:10.37,2013-03-09 02:10:00,
2013-03-08 21:11:00,43.7,35.6,30.30,North,9,0.0,0.0,73,0.00,CLR,,0.00,WeatherDisplay:10.37,2013-03-09 02:11:00,
2013-03-08 21:12:00,43.8,35.7,30.30,North,9,0.0,0.0,73,0.00,CLR,,0.00,WeatherDisplay:10.37,2013-03-09 02:12:00,
2013-03-08 21:14:00,43.8,35.7,30.30,North,9,0.0,0.0,73,0.00,CLR,,0.00,WeatherDisplay:10.37,2013-03-09 02:14:00,
2013-03-08 21:15:00,43.7,35.3,30.30,North,9,0.0,0.0,72,0.00,CLR,,0.00,WeatherDisplay:10.37,2013-03-09 02:15:00,
2013-03-08 21:16:00,43.6,35.5,30.30,North,9,0.0,0.0,73,0.00,CLR,,0.00,WeatherDisplay:10.37,2013-03-09 02:16:00,
2013-03-08 21:17:00,43.6,35.5,30.30,North,9,0.0,0.0,73,0.00,CLR,,0.00,WeatherDisplay:10.37,2013-03-09 02:17:00,
2013-03-08 21:19:00,43.6,35.5,30.30,North,9,0.0,0.0,73,0.00,CLR,,0.00,WeatherDisplay:10.37,2013-03-09 02:19:00,
2013-03-08 21:20:00,43.6,35.5,30.30,North,9,0.0,0.0,73,0.00,CLR,,0.00,WeatherDisplay:10.37,2013-03-09 02:20:00,
2013-03-08 21:22:00,43.6,35.5,30.30,North,9,0.0,1.1,73,0.00,CLR,,0.00,WeatherDisplay:10.37,2013-03-09 02:22:00,
2013-03-08 21:24:00,43.7,35.6,30.30,North,9,0.0,0.0,73,0.00,CLR,,0.00,WeatherDisplay:10.37,2013-03-09 02:24:00,
2013-03-08 21:25:00,43.7,35.3,30.30,North,9,0.0,0.0,72,0.00,CLR,,0.00,WeatherDisplay:10.37,2013-03-09 02:25:00,
2013-03-08 21:27:00,43.8,35.4,30.30,North,9,0.0,0.0,72,0.00,CLR,,0.00,WeatherDisplay:10.37,2013-03-09 02:27:00,
2013-03-08 21:29:00,43.7,35.3,30.29,North,9,0.0,0.0,72,0.00,CLR,,0.00,WeatherDisplay:10.37,2013-03-09 02:29:00,
2013-03-08 21:30:00,43.7,35.6,30.29,North,9,0.0,0.0,73,0.00,CLR,,0.00,WeatherDisplay:10.37,2013-03-09 02:30:00,
2013-03-08 21:32:00,43.6,35.5,30.30,North,9,0.2,1.1,73,0.00,CLR,,0.00,WeatherDisplay:10.37,2013-03-09 02:32:00,
2013-03-08 21:33:00,43.6,35.5,30.30,North,9,0.0,2.3,73,0.00,CLR,,0.00,WeatherDisplay:10.37,2013-03-09 02:33:00,
2013-03-08 21:34:00,43.5,35.1,30.30,North,9,0.0,0.0,72,0.00,CLR,,0.00,WeatherDisplay:10.37,2013-03-09 02:34:00,
2013-03-08 21:35:00,43.5,35.4,30.30,North,9,0.0,0.0,73,0.00,CLR,,0.00,WeatherDisplay:10.37,2013-03-09 02:35:00,
2013-03-08 21:38:00,43.2,35.1,30.30,North,9,0.0,0.0,73,0.00,CLR,,0.00,WeatherDisplay:10.37,2013-03-09 02:38:00,
2013-03-08 21:39:00,43.0,34.9,30.30,North,9,0.0,0.0,73,0.00,CLR,,0.00,WeatherDisplay:10.37,2013-03-09 02:39:00,
2013-03-08 21:40:00,42.9,35.2,30.30,North,9,0.0,0.0,74,0.00,CLR,,0.00,WeatherDisplay:10.37,2013-03-09 02:40:00,
2013-03-08 21:43:00,42.7,35.0,30.30,North,9,0.0,0.0,74,0.00,CLR,,0.00,WeatherDisplay:10.37,2013-03-09 02:43:00,
2013-03-08 21:44:00,42.6,34.9,30.30,North,9,0.0,0.0,74,0.00,CLR,,0.00,WeatherDisplay:10.37,2013-03-09 02:44:00,
2013-03-08 21:45:00,42.6,34.9,30.30,North,9,0.0,0.0,74,0.00,CLR,,0.00,WeatherDisplay:10.37,2013-03-09 02:45:00,
2013-03-08 21:48:00,42.2,34.8,30.30,North,9,0.9,2.0,75,0.00,CLR,,0.00,WeatherDisplay:10.37,2013-03-09 02:48:00,
2013-03-08 21:49:00,42.0,34.6,30.31,North,9,1.2,3.5,75,0.00,CLR,,0.00,WeatherDisplay:10.37,2013-03-09 02:49:00,
2013-03-08 21:51:00,41.7,34.7,30.30,North,9,0.0,1.1,76,0.00,CLR,,0.00,WeatherDisplay:10.37,2013-03-09 02:51:00,
2013-03-08 21:53:00,41.7,34.7,30.30,North,9,0.0,0.0,76,0.00,CLR,,0.00,WeatherDisplay:10.37,2013-03-09 02:53:00,
2013-03-08 21:54:00,41.7,34.7,30.30,North,9,0.0,0.0,76,0.00,CLR,,0.00,WeatherDisplay:10.37,2013-03-09 02:54:00,
2013-03-08 21:56:00,41.8,34.8,30.30,North,9,0.0,0.0,76,0.00,CLR,,0.00,WeatherDisplay:10.37,2013-03-09 02:56:00,
2013-03-08 21:59:00,41.7,34.4,30.30,North,9,0.0,0.0,75,0.00,CLR,,0.00,WeatherDisplay:10.37,2013-03-09 02:59:00,
2013-03-08 22:01:00,41.8,34.8,30.31,North,9,0.0,0.0,76,0.00,CLR,,0.00,WeatherDisplay:10.37,2013-03-09 03:01:00,
2013-03-08 22:04:00,41.9,34.9,30.31,North,9,0.0,0.0,76,0.00,CLR,,0.00,WeatherDisplay:10.37,2013-03-09 03:04:00,
2013-03-08 22:07:00,41.6,34.6,30.31,North,9,0.0,0.0,76,0.00,CLR,,0.00,WeatherDisplay:10.37,2013-03-09 03:07:00,
2013-03-08 22:09:00,41.5,34.5,30.31,North,9,0.0,0.0,76,0.00,CLR,,0.00,WeatherDisplay:10.37,2013-03-09 03:09:00,
2013-03-08 22:10:00,41.5,34.5,30.31,North,9,0.0,0.0,76,0.00,CLR,,0.00,WeatherDisplay:10.37,2013-03-09 03:10:00,
2013-03-08 22:12:00,41.6,34.6,30.30,North,9,0.0,0.0,76,0.00,CLR,,0.00,WeatherDisplay:10.37,2013-03-09 03:12:00,
2013-03-08 22:14:00,41.6,34.6,30.31,North,9,0.0,0.0,76,0.00,CLR,,0.00,WeatherDisplay:10.37,2013-03-09 03:14:00,
2013-03-08 22:15:00,41.6,34.6,30.30,North,9,0.0,0.0,76,0.00,CLR,,0.00,WeatherDisplay:10.37,2013-03-09 03:15:00,
2013-03-08 22:18:00,41.6,34.6,30.31,North,9,0.0,0.0,76,0.00,CLR,,0.00,WeatherDisplay:10.37,2013-03-09 03:18:00,
2013-03-08 22:19:00,41.6,34.6,30.31,North,9,0.0,0.0,76,0.00,CLR,,0.00,WeatherDisplay:10.37,2013-03-09 03:19:00,
2013-03-08 22:20:00,41.6,34.6,30.31,North,9,0.0,0.0,76,0.00,CLR,,0.00,WeatherDisplay:10.37,2013-03-09 03:20:00,
2013-03-08 22:23:00,41.7,34.7,30.31,North,9,0.0,0.0,76,0.00,CLR,,0.00,WeatherDisplay:10.37,2013-03-09 03:23:00,
2013-03-08 22:24:00,41.7,34.7,30.31,North,9,0.0,0.0,76,0.00,CLR,,0.00,WeatherDisplay:10.37,2013-03-09 03:24:00,
2013-03-08 22:25:00,41.7,34.7,30.31,North,9,0.0,0.0,76,0.00,CLR,,0.00,WeatherDisplay:10.37,2013-03-09 03:25:00,
2013-03-08 22:28:00,41.5,34.2,30.31,North,9,0.0,0.0,75,0.00,CLR,,0.00,WeatherDisplay:10.37,2013-03-09 03:28:00,
2013-03-08 22:29:00,41.5,34.2,30.31,North,9,0.0,0.0,75,0.00,CLR,,0.00,WeatherDisplay:10.37,2013-03-09 03:29:00,
2013-03-08 22:30:00,41.5,34.2,30.31,North,9,0.0,0.0,75,0.00,CLR,,0.00,WeatherDisplay:10.37,2013-03-09 03:30:00,
2013-03-08 22:33:00,41.3,34.0,30.31,North,9,0.0,0.0,75,0.00,CLR,,0.00,WeatherDisplay:10.37,2013-03-09 03:33:00,
2013-03-08 22:34:00,41.3,34.3,30.31,North,9,0.0,0.0,76,0.00,CLR,,0.00,WeatherDisplay:10.37,2013-03-09 03:34:00,
2013-03-08 22:35:00,41.3,34.3,30.31,North,9,0.0,0.0,76,0.00,CLR,,0.00,WeatherDisplay:10.37,2013-03-09 03:35:00,
2013-03-08 22:38:00,41.2,34.2,30.31,North,9,0.0,0.0,76,0.00,CLR,,0.00,WeatherDisplay:10.37,2013-03-09 03:38:00,
2013-03-08 22:39:00,41.2,34.5,30.31,North,9,0.0,1.1,77,0.00,CLR,,0.00,WeatherDisplay:10.37,2013-03-09 03:39:00,
2013-03-08 22:40:00,41.1,34.1,30.31,North,9,0.0,0.0,76,0.00,CLR,,0.00,WeatherDisplay:10.37,2013-03-09 03:40:00,
2013-03-08 22:43:00,41.0,34.3,30.31,North,9,0.0,0.0,77,0.00,CLR,,0.00,WeatherDisplay:10.37,2013-03-09 03:43:00,
2013-03-08 22:45:00,41.0,34.3,30.31,North,9,0.0,0.0,77,0.00,CLR,,0.00,WeatherDisplay:10.37,2013-03-09 03:45:00,
2013-03-08 22:48:00,41.0,34.0,30.31,North,9,0.4,2.0,76,0.00,CLR,,0.00,WeatherDisplay:10.37,2013-03-09 03:48:00,
2013-03-08 22:50:00,40.9,33.9,30.31,NNE,21,0.0,2.3,76,0.00,CLR,,0.00,WeatherDisplay:10.37,2013-03-09 03:50:00,
2013-03-08 22:51:00,40.8,33.8,30.31,NNE,21,0.0,0.0,76,0.00,CLR,,0.00,WeatherDisplay:10.37,2013-03-09 03:51:00,
2013-03-08 22:53:00,40.6,34.0,30.31,NNE,21,1.1,2.3,77,0.00,CLR,,0.00,WeatherDisplay:10.37,2013-03-09 03:53:00,
2013-03-08 22:55:00,40.5,33.9,30.31,NNE,21,0.0,0.0,77,0.00,CLR,,0.00,WeatherDisplay:10.37,2013-03-09 03:55:00,
2013-03-08 22:56:00,40.5,33.9,30.31,NNE,21,0.0,0.0,77,0.00,CLR,,0.00,WeatherDisplay:10.37,2013-03-09 03:56:00,
2013-03-08 22:58:00,40.5,33.9,30.31,NNE,21,0.0,0.0,77,0.00,CLR,,0.00,WeatherDisplay:10.37,2013-03-09 03:58:00,
2013-03-08 23:00:00,40.4,33.8,30.31,NNE,21,0.0,0.0,77,0.00,CLR,,0.00,WeatherDisplay:10.37,2013-03-09 04:00:00,
2013-03-08 23:01:00,40.4,33.8,30.31,NNE,21,0.0,0.0,77,0.00,CLR,,0.00,WeatherDisplay:10.37,2013-03-09 04:01:00,
2013-03-08 23:03:00,40.3,33.7,30.31,NNE,21,0.0,2.3,77,0.00,CLR,,0.00,WeatherDisplay:10.37,2013-03-09 04:03:00,
2013-03-08 23:05:00,40.3,34.0,30.31,NNE,21,0.0,0.0,78,0.00,CLR,,0.00,WeatherDisplay:10.37,2013-03-09 04:05:00,
2013-03-08 23:06:00,40.3,34.0,30.31,NNE,21,0.9,2.0,78,0.00,CLR,,0.00,WeatherDisplay:10.37,2013-03-09 04:06:00,
2013-03-08 23:09:00,40.1,33.8,30.31,NNE,29,0.0,0.0,78,0.00,CLR,,0.00,WeatherDisplay:10.37,2013-03-09 04:09:00,
2013-03-08 23:10:00,40.1,33.8,30.31,NNE,29,0.0,0.0,78,0.00,CLR,,0.00,WeatherDisplay:10.37,2013-03-09 04:10:00,
2013-03-08 23:12:00,40.0,33.7,30.31,NNE,29,0.0,0.0,78,0.00,CLR,,0.00,WeatherDisplay:10.37,2013-03-09 04:12:00,
2013-03-08 23:14:00,39.9,33.6,30.31,NNE,29,0.0,0.0,78,0.00,CLR,,0.00,WeatherDisplay:10.37,2013-03-09 04:14:00,
2013-03-08 23:15:00,39.9,33.9,30.31,NNE,29,0.0,0.0,79,0.00,CLR,,0.00,WeatherDisplay:10.37,2013-03-09 04:15:00,
2013-03-08 23:17:00,39.9,33.9,30.30,NNE,29,1.0,1.0,79,0.00,CLR,,0.00,WeatherDisplay:10.37,2013-03-09 04:17:00,
2013-03-08 23:19:00,39.9,33.9,30.30,NNE,29,0.4,2.3,79,0.00,CLR,,0.00,WeatherDisplay:10.37,2013-03-09 04:19:00,
2013-03-08 23:20:00,39.9,33.9,30.30,NNE,29,0.4,2.3,79,0.00,CLR,,0.00,WeatherDisplay:10.37,2013-03-09 04:20:00,
2013-03-08 23:22:00,39.9,33.9,30.30,NNE,29,0.0,0.0,79,0.00,CLR,,0.00,WeatherDisplay:10.37,2013-03-09 04:22:00,
2013-03-08 23:24:00,39.8,33.5,30.30,NNE,29,0.0,0.0,78,0.00,CLR,,0.00,WeatherDisplay:10.37,2013-03-09 04:24:00,
2013-03-08 23:25:00,39.8,33.8,30.30,NNE,29,0.0,0.0,79,0.00,CLR,,0.00,WeatherDisplay:10.37,2013-03-09 04:25:00,
2013-03-08 23:26:00,39.7,33.7,30.30,NNE,29,0.0,0.0,79,0.00,CLR,,0.00,WeatherDisplay:10.37,2013-03-09 04:26:00,
2013-03-08 23:27:00,39.7,33.4,30.30,NNE,29,0.0,0.0,78,0.00,CLR,,0.00,WeatherDisplay:10.37,2013-03-09 04:27:00,
2013-03-08 23:30:00,39.7,33.4,30.30,NNE,29,0.0,0.0,78,0.00,CLR,,0.00,WeatherDisplay:10.37,2013-03-09 04:30:00,
2013-03-08 23:31:00,39.7,33.4,30.30,NNE,29,0.0,0.0,78,0.00,CLR,,0.00,WeatherDisplay:10.37,2013-03-09 04:31:00,
2013-03-08 23:32:00,39.8,33.5,30.30,NNE,29,1.0,3.5,78,0.00,CLR,,0.00,WeatherDisplay:10.37,2013-03-09 04:32:00,
2013-03-08 23:35:00,39.9,33.3,30.30,NNE,32,0.5,2.3,77,0.00,CLR,,0.00,WeatherDisplay:10.37,2013-03-09 04:35:00,
2013-03-08 23:36:00,39.9,33.3,30.30,NNE,31,0.1,2.3,77,0.00,CLR,,0.00,WeatherDisplay:10.37,2013-03-09 04:36:00,
2013-03-08 23:38:00,39.9,33.3,30.30,NNE,27,0.1,1.1,77,0.00,CLR,,0.00,WeatherDisplay:10.37,2013-03-09 04:38:00,
2013-03-08 23:40:00,39.9,32.9,30.30,NNE,28,0.0,0.0,76,0.00,CLR,,0.00,WeatherDisplay:10.37,2013-03-09 04:40:00,
2013-03-08 23:41:00,39.9,33.3,30.30,NNE,28,0.0,0.0,77,0.00,CLR,,0.00,WeatherDisplay:10.37,2013-03-09 04:41:00,
2013-03-08 23:42:00,39.9,32.9,30.30,NNE,28,0.0,1.1,76,0.00,CLR,,0.00,WeatherDisplay:10.37,2013-03-09 04:42:00,
2013-03-08 23:43:00,39.8,33.2,30.30,NNE,28,0.0,0.0,77,0.00,CLR,,0.00,WeatherDisplay:10.37,2013-03-09 04:43:00,
2013-03-08 23:45:00,39.8,33.2,30.30,NNE,28,0.0,0.0,77,0.00,CLR,,0.00,WeatherDisplay:10.37,2013-03-09 04:45:00,
2013-03-08 23:46:00,39.8,33.2,30.30,NNE,28,0.0,0.0,77,0.00,CLR,,0.00,WeatherDisplay:10.37,2013-03-09 04:46:00,
2013-03-08 23:47:00,39.8,33.2,30.30,NNE,28,0.0,0.0,77,0.00,CLR,,0.00,WeatherDisplay:10.37,2013-03-09 04:47:00,
2013-03-08 23:48:00,39.8,33.2,30.30,NNE,28,0.0,0.0,77,0.00,CLR,,0.00,WeatherDisplay:10.37,2013-03-09 04:48:00,
2013-03-08 23:50:00,39.8,33.2,30.30,NNE,28,0.0,0.0,77,0.00,CLR,,0.00,WeatherDisplay:10.37,2013-03-09 04:50:00,
2013-03-08 23:51:00,39.8,33.2,30.30,NNE,28,0.8,3.5,77,0.00,CLR,,0.00,WeatherDisplay:10.37,2013-03-09 04:51:00,
2013-03-08 23:52:00,39.8,33.2,30.30,NNE,28,0.0,2.3,77,0.00,CLR,,0.00,WeatherDisplay:10.37,2013-03-09 04:52:00,
2013-03-08 23:53:00,39.8,33.2,30.30,NNE,28,0.6,0.0,77,0.00,CLR,,0.00,WeatherDisplay:10.37,2013-03-09 04:53:00,
2013-03-08 23:55:00,39.7,33.1,30.30,NNE,28,0.0,1.1,77,0.00,CLR,,0.00,WeatherDisplay:10.37,2013-03-09 04:55:00,
2013-03-08 23:56:00,39.7,33.1,30.30,NNE,28,0.0,0.0,77,0.00,CLR,,0.00,WeatherDisplay:10.37,2013-03-09 04:56:00,
2013-03-08 23:57:00,39.7,33.1,30.30,NNE,28,0.0,0.0,77,0.00,CLR,,0.00,WeatherDisplay:10.37,2013-03-09 04:57:00,
2013-03-08 23:58:00,39.7,33.1,30.30,NNE,21,0.5,4.0,77,0.00,CLR,,0.00,WeatherDisplay:10.37,2013-03-09 04:58:00,